<?xml version="1.0" encoding="UTF-8" standalone="no" ?>
<gpx xmlns="http://www.topografix.com/GPX/1/1" xmlns:xsi="http://www.w3.org/2001/XMLSchema-instance" xsi:schemaLocation="http://www.topografix.com/GPX/1/1 http://www.topografix.com/GPX/1/1/gpx.xsd" version="1.1" creator="VisuGPX - https://www.visugpx.com">
  <metadata>
    <name>Balade à Ancelle le 18 Janvier 2011 </name>
    <desc><![CDATA[balade sur la neige damée par le col de Moissière]]></desc>
  </metadata>
  <trk>
    <name><![CDATA[Balade à Ancelle le 18 Janvier 2011 _1]]></name>
    <trkseg>
      <trkpt lat="44.62116" lon="6.1906">
        <ele>1316</ele>
        <time>2011-01-18T10:22:55Z</time>
      </trkpt>
      <trkpt lat="44.62111" lon="6.19098">
        <ele>1325</ele>
        <time>2011-01-18T10:23:19Z</time>
      </trkpt>
      <trkpt lat="44.62115" lon="6.19106">
        <ele>1322</ele>
        <time>2011-01-18T10:23:29Z</time>
      </trkpt>
      <trkpt lat="44.62118" lon="6.19123">
        <ele>1318</ele>
        <time>2011-01-18T10:23:40Z</time>
      </trkpt>
      <trkpt lat="44.62117" lon="6.1914">
        <ele>1315</ele>
        <time>2011-01-18T10:23:50Z</time>
      </trkpt>
      <trkpt lat="44.62114" lon="6.1916">
        <ele>1314</ele>
        <time>2011-01-18T10:24:00Z</time>
      </trkpt>
      <trkpt lat="44.62112" lon="6.19183">
        <ele>1314</ele>
        <time>2011-01-18T10:24:11Z</time>
      </trkpt>
      <trkpt lat="44.62111" lon="6.19197">
        <ele>1314</ele>
        <time>2011-01-18T10:24:21Z</time>
      </trkpt>
      <trkpt lat="44.62109" lon="6.19211">
        <ele>1314</ele>
        <time>2011-01-18T10:24:32Z</time>
      </trkpt>
      <trkpt lat="44.62105" lon="6.19222">
        <ele>1313</ele>
        <time>2011-01-18T10:24:42Z</time>
      </trkpt>
      <trkpt lat="44.62101" lon="6.19234">
        <ele>1312</ele>
        <time>2011-01-18T10:24:52Z</time>
      </trkpt>
      <trkpt lat="44.62092" lon="6.19242">
        <ele>1311</ele>
        <time>2011-01-18T10:25:04Z</time>
      </trkpt>
      <trkpt lat="44.62088" lon="6.19254">
        <ele>1310</ele>
        <time>2011-01-18T10:25:14Z</time>
      </trkpt>
      <trkpt lat="44.6209" lon="6.19266">
        <ele>1309</ele>
        <time>2011-01-18T10:25:24Z</time>
      </trkpt>
      <trkpt lat="44.62093" lon="6.19275">
        <ele>1309</ele>
        <time>2011-01-18T10:25:35Z</time>
      </trkpt>
      <trkpt lat="44.62097" lon="6.19286">
        <ele>1307</ele>
        <time>2011-01-18T10:25:45Z</time>
      </trkpt>
      <trkpt lat="44.62099" lon="6.19301">
        <ele>1307</ele>
        <time>2011-01-18T10:25:56Z</time>
      </trkpt>
      <trkpt lat="44.62097" lon="6.19306">
        <ele>1307</ele>
        <time>2011-01-18T10:26:06Z</time>
      </trkpt>
      <trkpt lat="44.62096" lon="6.19306">
        <ele>1307</ele>
        <time>2011-01-18T10:26:18Z</time>
      </trkpt>
      <trkpt lat="44.62094" lon="6.19287">
        <ele>1306</ele>
        <time>2011-01-18T10:26:28Z</time>
      </trkpt>
      <trkpt lat="44.62093" lon="6.19266">
        <ele>1305</ele>
        <time>2011-01-18T10:26:38Z</time>
      </trkpt>
      <trkpt lat="44.6209" lon="6.19243">
        <ele>1305</ele>
        <time>2011-01-18T10:26:49Z</time>
      </trkpt>
      <trkpt lat="44.62098" lon="6.19226">
        <ele>1305</ele>
        <time>2011-01-18T10:26:59Z</time>
      </trkpt>
      <trkpt lat="44.62107" lon="6.192">
        <ele>1305</ele>
        <time>2011-01-18T10:27:09Z</time>
      </trkpt>
      <trkpt lat="44.62108" lon="6.19173">
        <ele>1307</ele>
        <time>2011-01-18T10:27:19Z</time>
      </trkpt>
      <trkpt lat="44.62113" lon="6.19156">
        <ele>1307</ele>
        <time>2011-01-18T10:27:29Z</time>
      </trkpt>
      <trkpt lat="44.62113" lon="6.19134">
        <ele>1305</ele>
        <time>2011-01-18T10:27:39Z</time>
      </trkpt>
      <trkpt lat="44.62115" lon="6.19109">
        <ele>1305</ele>
        <time>2011-01-18T10:27:49Z</time>
      </trkpt>
      <trkpt lat="44.62116" lon="6.19093">
        <ele>1305</ele>
        <time>2011-01-18T10:27:59Z</time>
      </trkpt>
      <trkpt lat="44.62113" lon="6.19074">
        <ele>1305</ele>
        <time>2011-01-18T10:28:10Z</time>
      </trkpt>
      <trkpt lat="44.62118" lon="6.19058">
        <ele>1305</ele>
        <time>2011-01-18T10:28:20Z</time>
      </trkpt>
      <trkpt lat="44.62121" lon="6.19039">
        <ele>1305</ele>
        <time>2011-01-18T10:28:30Z</time>
      </trkpt>
      <trkpt lat="44.62122" lon="6.1902">
        <ele>1305</ele>
        <time>2011-01-18T10:28:40Z</time>
      </trkpt>
      <trkpt lat="44.62123" lon="6.18992">
        <ele>1305</ele>
        <time>2011-01-18T10:28:50Z</time>
      </trkpt>
      <trkpt lat="44.62121" lon="6.18958">
        <ele>1305</ele>
        <time>2011-01-18T10:29:00Z</time>
      </trkpt>
      <trkpt lat="44.62116" lon="6.18919">
        <ele>1305</ele>
        <time>2011-01-18T10:29:10Z</time>
      </trkpt>
      <trkpt lat="44.62122" lon="6.18893">
        <ele>1305</ele>
        <time>2011-01-18T10:29:20Z</time>
      </trkpt>
      <trkpt lat="44.6213" lon="6.18876">
        <ele>1305</ele>
        <time>2011-01-18T10:29:30Z</time>
      </trkpt>
      <trkpt lat="44.62128" lon="6.18853">
        <ele>1305</ele>
        <time>2011-01-18T10:29:40Z</time>
      </trkpt>
      <trkpt lat="44.62132" lon="6.18824">
        <ele>1305</ele>
        <time>2011-01-18T10:29:50Z</time>
      </trkpt>
      <trkpt lat="44.62132" lon="6.18803">
        <ele>1305</ele>
        <time>2011-01-18T10:30:00Z</time>
      </trkpt>
      <trkpt lat="44.62129" lon="6.18782">
        <ele>1304</ele>
        <time>2011-01-18T10:30:10Z</time>
      </trkpt>
      <trkpt lat="44.62129" lon="6.18772">
        <ele>1304</ele>
        <time>2011-01-18T10:30:22Z</time>
      </trkpt>
      <trkpt lat="44.6213" lon="6.18773">
        <ele>1304</ele>
        <time>2011-01-18T10:30:35Z</time>
      </trkpt>
      <trkpt lat="44.6213" lon="6.18776">
        <ele>1304</ele>
        <time>2011-01-18T10:30:49Z</time>
      </trkpt>
      <trkpt lat="44.62131" lon="6.18788">
        <ele>1304</ele>
        <time>2011-01-18T10:30:59Z</time>
      </trkpt>
      <trkpt lat="44.62133" lon="6.18803">
        <ele>1304</ele>
        <time>2011-01-18T10:31:09Z</time>
      </trkpt>
      <trkpt lat="44.62135" lon="6.18818">
        <ele>1304</ele>
        <time>2011-01-18T10:31:19Z</time>
      </trkpt>
      <trkpt lat="44.62135" lon="6.1883">
        <ele>1304</ele>
        <time>2011-01-18T10:31:29Z</time>
      </trkpt>
      <trkpt lat="44.62134" lon="6.18841">
        <ele>1304</ele>
        <time>2011-01-18T10:31:39Z</time>
      </trkpt>
      <trkpt lat="44.6213" lon="6.18857">
        <ele>1304</ele>
        <time>2011-01-18T10:31:49Z</time>
      </trkpt>
      <trkpt lat="44.6213" lon="6.18876">
        <ele>1304</ele>
        <time>2011-01-18T10:31:59Z</time>
      </trkpt>
      <trkpt lat="44.62121" lon="6.18893">
        <ele>1304</ele>
        <time>2011-01-18T10:32:10Z</time>
      </trkpt>
      <trkpt lat="44.62116" lon="6.18919">
        <ele>1304</ele>
        <time>2011-01-18T10:32:20Z</time>
      </trkpt>
      <trkpt lat="44.62118" lon="6.18942">
        <ele>1304</ele>
        <time>2011-01-18T10:32:30Z</time>
      </trkpt>
      <trkpt lat="44.6212" lon="6.18959">
        <ele>1304</ele>
        <time>2011-01-18T10:32:40Z</time>
      </trkpt>
      <trkpt lat="44.62121" lon="6.18977">
        <ele>1306</ele>
        <time>2011-01-18T10:32:50Z</time>
      </trkpt>
      <trkpt lat="44.62121" lon="6.18995">
        <ele>1307</ele>
        <time>2011-01-18T10:33:00Z</time>
      </trkpt>
      <trkpt lat="44.6212" lon="6.19015">
        <ele>1308</ele>
        <time>2011-01-18T10:33:10Z</time>
      </trkpt>
      <trkpt lat="44.62119" lon="6.19035">
        <ele>1308</ele>
        <time>2011-01-18T10:33:20Z</time>
      </trkpt>
      <trkpt lat="44.62117" lon="6.19058">
        <ele>1308</ele>
        <time>2011-01-18T10:33:30Z</time>
      </trkpt>
      <trkpt lat="44.62115" lon="6.19087">
        <ele>1308</ele>
        <time>2011-01-18T10:33:40Z</time>
      </trkpt>
      <trkpt lat="44.62117" lon="6.19116">
        <ele>1305</ele>
        <time>2011-01-18T10:33:50Z</time>
      </trkpt>
      <trkpt lat="44.62115" lon="6.19149">
        <ele>1304</ele>
        <time>2011-01-18T10:34:00Z</time>
      </trkpt>
      <trkpt lat="44.62112" lon="6.19178">
        <ele>1302</ele>
        <time>2011-01-18T10:34:10Z</time>
      </trkpt>
      <trkpt lat="44.6211" lon="6.19203">
        <ele>1301</ele>
        <time>2011-01-18T10:34:20Z</time>
      </trkpt>
      <trkpt lat="44.62101" lon="6.19229">
        <ele>1301</ele>
        <time>2011-01-18T10:34:30Z</time>
      </trkpt>
      <trkpt lat="44.62091" lon="6.19249">
        <ele>1300</ele>
        <time>2011-01-18T10:34:40Z</time>
      </trkpt>
      <trkpt lat="44.62094" lon="6.19274">
        <ele>1300</ele>
        <time>2011-01-18T10:34:50Z</time>
      </trkpt>
      <trkpt lat="44.62098" lon="6.19303">
        <ele>1300</ele>
        <time>2011-01-18T10:35:00Z</time>
      </trkpt>
      <trkpt lat="44.62094" lon="6.19328">
        <ele>1300</ele>
        <time>2011-01-18T10:35:10Z</time>
      </trkpt>
      <trkpt lat="44.62087" lon="6.1935">
        <ele>1300</ele>
        <time>2011-01-18T10:35:20Z</time>
      </trkpt>
      <trkpt lat="44.62078" lon="6.19367">
        <ele>1300</ele>
        <time>2011-01-18T10:35:30Z</time>
      </trkpt>
      <trkpt lat="44.62063" lon="6.19381">
        <ele>1300</ele>
        <time>2011-01-18T10:35:40Z</time>
      </trkpt>
      <trkpt lat="44.62047" lon="6.19396">
        <ele>1300</ele>
        <time>2011-01-18T10:35:50Z</time>
      </trkpt>
      <trkpt lat="44.62033" lon="6.19414">
        <ele>1300</ele>
        <time>2011-01-18T10:36:00Z</time>
      </trkpt>
      <trkpt lat="44.62032" lon="6.19432">
        <ele>1300</ele>
        <time>2011-01-18T10:36:10Z</time>
      </trkpt>
      <trkpt lat="44.62037" lon="6.19451">
        <ele>1300</ele>
        <time>2011-01-18T10:36:20Z</time>
      </trkpt>
      <trkpt lat="44.62039" lon="6.19471">
        <ele>1300</ele>
        <time>2011-01-18T10:36:30Z</time>
      </trkpt>
      <trkpt lat="44.62041" lon="6.19492">
        <ele>1300</ele>
        <time>2011-01-18T10:36:40Z</time>
      </trkpt>
      <trkpt lat="44.62033" lon="6.19515">
        <ele>1300</ele>
        <time>2011-01-18T10:36:50Z</time>
      </trkpt>
      <trkpt lat="44.62025" lon="6.19534">
        <ele>1303</ele>
        <time>2011-01-18T10:37:00Z</time>
      </trkpt>
      <trkpt lat="44.62022" lon="6.19554">
        <ele>1304</ele>
        <time>2011-01-18T10:37:10Z</time>
      </trkpt>
      <trkpt lat="44.62021" lon="6.19581">
        <ele>1305</ele>
        <time>2011-01-18T10:37:20Z</time>
      </trkpt>
      <trkpt lat="44.6202" lon="6.19607">
        <ele>1305</ele>
        <time>2011-01-18T10:37:30Z</time>
      </trkpt>
      <trkpt lat="44.62018" lon="6.19628">
        <ele>1305</ele>
        <time>2011-01-18T10:37:40Z</time>
      </trkpt>
      <trkpt lat="44.62017" lon="6.19649">
        <ele>1306</ele>
        <time>2011-01-18T10:37:50Z</time>
      </trkpt>
      <trkpt lat="44.62013" lon="6.19669">
        <ele>1306</ele>
        <time>2011-01-18T10:38:00Z</time>
      </trkpt>
      <trkpt lat="44.62008" lon="6.19688">
        <ele>1306</ele>
        <time>2011-01-18T10:38:10Z</time>
      </trkpt>
      <trkpt lat="44.62003" lon="6.19708">
        <ele>1306</ele>
        <time>2011-01-18T10:38:20Z</time>
      </trkpt>
      <trkpt lat="44.61998" lon="6.19731">
        <ele>1306</ele>
        <time>2011-01-18T10:38:30Z</time>
      </trkpt>
      <trkpt lat="44.61996" lon="6.19756">
        <ele>1306</ele>
        <time>2011-01-18T10:38:40Z</time>
      </trkpt>
      <trkpt lat="44.61998" lon="6.19776">
        <ele>1306</ele>
        <time>2011-01-18T10:38:50Z</time>
      </trkpt>
      <trkpt lat="44.62003" lon="6.19796">
        <ele>1306</ele>
        <time>2011-01-18T10:39:00Z</time>
      </trkpt>
      <trkpt lat="44.62006" lon="6.19816">
        <ele>1306</ele>
        <time>2011-01-18T10:39:10Z</time>
      </trkpt>
      <trkpt lat="44.62007" lon="6.19836">
        <ele>1307</ele>
        <time>2011-01-18T10:39:20Z</time>
      </trkpt>
      <trkpt lat="44.62008" lon="6.19859">
        <ele>1307</ele>
        <time>2011-01-18T10:39:30Z</time>
      </trkpt>
      <trkpt lat="44.61999" lon="6.1988">
        <ele>1307</ele>
        <time>2011-01-18T10:39:40Z</time>
      </trkpt>
      <trkpt lat="44.62004" lon="6.19904">
        <ele>1308</ele>
        <time>2011-01-18T10:39:50Z</time>
      </trkpt>
      <trkpt lat="44.62008" lon="6.19931">
        <ele>1308</ele>
        <time>2011-01-18T10:40:00Z</time>
      </trkpt>
      <trkpt lat="44.6201" lon="6.19954">
        <ele>1310</ele>
        <time>2011-01-18T10:40:10Z</time>
      </trkpt>
      <trkpt lat="44.62009" lon="6.1998">
        <ele>1312</ele>
        <time>2011-01-18T10:40:20Z</time>
      </trkpt>
      <trkpt lat="44.62011" lon="6.20003">
        <ele>1314</ele>
        <time>2011-01-18T10:40:30Z</time>
      </trkpt>
      <trkpt lat="44.62012" lon="6.20019">
        <ele>1316</ele>
        <time>2011-01-18T10:40:40Z</time>
      </trkpt>
      <trkpt lat="44.62011" lon="6.20036">
        <ele>1318</ele>
        <time>2011-01-18T10:40:50Z</time>
      </trkpt>
      <trkpt lat="44.62014" lon="6.20059">
        <ele>1319</ele>
        <time>2011-01-18T10:41:00Z</time>
      </trkpt>
      <trkpt lat="44.62017" lon="6.20079">
        <ele>1319</ele>
        <time>2011-01-18T10:41:10Z</time>
      </trkpt>
      <trkpt lat="44.62022" lon="6.20098">
        <ele>1319</ele>
        <time>2011-01-18T10:41:20Z</time>
      </trkpt>
      <trkpt lat="44.62024" lon="6.20116">
        <ele>1319</ele>
        <time>2011-01-18T10:41:30Z</time>
      </trkpt>
      <trkpt lat="44.62032" lon="6.20134">
        <ele>1319</ele>
        <time>2011-01-18T10:41:40Z</time>
      </trkpt>
      <trkpt lat="44.6204" lon="6.20152">
        <ele>1319</ele>
        <time>2011-01-18T10:41:50Z</time>
      </trkpt>
      <trkpt lat="44.62052" lon="6.2017">
        <ele>1320</ele>
        <time>2011-01-18T10:42:00Z</time>
      </trkpt>
      <trkpt lat="44.62062" lon="6.20188">
        <ele>1321</ele>
        <time>2011-01-18T10:42:10Z</time>
      </trkpt>
      <trkpt lat="44.62071" lon="6.20203">
        <ele>1321</ele>
        <time>2011-01-18T10:42:20Z</time>
      </trkpt>
      <trkpt lat="44.62081" lon="6.20218">
        <ele>1321</ele>
        <time>2011-01-18T10:42:31Z</time>
      </trkpt>
      <trkpt lat="44.62092" lon="6.20232">
        <ele>1321</ele>
        <time>2011-01-18T10:42:41Z</time>
      </trkpt>
      <trkpt lat="44.62103" lon="6.20247">
        <ele>1321</ele>
        <time>2011-01-18T10:42:51Z</time>
      </trkpt>
      <trkpt lat="44.62114" lon="6.20262">
        <ele>1321</ele>
        <time>2011-01-18T10:43:01Z</time>
      </trkpt>
      <trkpt lat="44.62124" lon="6.20257">
        <ele>1321</ele>
        <time>2011-01-18T10:43:12Z</time>
      </trkpt>
      <trkpt lat="44.62132" lon="6.20253">
        <ele>1322</ele>
        <time>2011-01-18T10:43:25Z</time>
      </trkpt>
      <trkpt lat="44.62138" lon="6.20251">
        <ele>1322</ele>
        <time>2011-01-18T10:43:41Z</time>
      </trkpt>
      <trkpt lat="44.62128" lon="6.20255">
        <ele>1322</ele>
        <time>2011-01-18T10:43:51Z</time>
      </trkpt>
      <trkpt lat="44.6212" lon="6.2026">
        <ele>1322</ele>
        <time>2011-01-18T10:44:01Z</time>
      </trkpt>
      <trkpt lat="44.62119" lon="6.2026">
        <ele>1322</ele>
        <time>2011-01-18T10:44:13Z</time>
      </trkpt>
      <trkpt lat="44.62109" lon="6.20249">
        <ele>1322</ele>
        <time>2011-01-18T10:44:24Z</time>
      </trkpt>
      <trkpt lat="44.62096" lon="6.2024">
        <ele>1322</ele>
        <time>2011-01-18T10:44:34Z</time>
      </trkpt>
      <trkpt lat="44.62086" lon="6.20226">
        <ele>1322</ele>
        <time>2011-01-18T10:44:45Z</time>
      </trkpt>
      <trkpt lat="44.62076" lon="6.20214">
        <ele>1322</ele>
        <time>2011-01-18T10:44:55Z</time>
      </trkpt>
      <trkpt lat="44.62066" lon="6.20201">
        <ele>1322</ele>
        <time>2011-01-18T10:45:06Z</time>
      </trkpt>
      <trkpt lat="44.62053" lon="6.20195">
        <ele>1322</ele>
        <time>2011-01-18T10:45:16Z</time>
      </trkpt>
      <trkpt lat="44.6204" lon="6.20193">
        <ele>1322</ele>
        <time>2011-01-18T10:45:26Z</time>
      </trkpt>
      <trkpt lat="44.62028" lon="6.20199">
        <ele>1324</ele>
        <time>2011-01-18T10:45:36Z</time>
      </trkpt>
      <trkpt lat="44.62016" lon="6.20197">
        <ele>1326</ele>
        <time>2011-01-18T10:45:47Z</time>
      </trkpt>
      <trkpt lat="44.62006" lon="6.20196">
        <ele>1328</ele>
        <time>2011-01-18T10:45:58Z</time>
      </trkpt>
      <trkpt lat="44.61997" lon="6.20197">
        <ele>1328</ele>
        <time>2011-01-18T10:46:08Z</time>
      </trkpt>
      <trkpt lat="44.61997" lon="6.20196">
        <ele>1329</ele>
        <time>2011-01-18T10:46:23Z</time>
      </trkpt>
      <trkpt lat="44.62006" lon="6.20197">
        <ele>1329</ele>
        <time>2011-01-18T10:46:33Z</time>
      </trkpt>
      <trkpt lat="44.62016" lon="6.20203">
        <ele>1329</ele>
        <time>2011-01-18T10:46:43Z</time>
      </trkpt>
      <trkpt lat="44.62022" lon="6.20203">
        <ele>1329</ele>
        <time>2011-01-18T10:46:54Z</time>
      </trkpt>
      <trkpt lat="44.62031" lon="6.20195">
        <ele>1329</ele>
        <time>2011-01-18T10:47:04Z</time>
      </trkpt>
      <trkpt lat="44.62043" lon="6.20192">
        <ele>1329</ele>
        <time>2011-01-18T10:47:14Z</time>
      </trkpt>
      <trkpt lat="44.62055" lon="6.20193">
        <ele>1329</ele>
        <time>2011-01-18T10:47:24Z</time>
      </trkpt>
      <trkpt lat="44.62067" lon="6.20199">
        <ele>1329</ele>
        <time>2011-01-18T10:47:35Z</time>
      </trkpt>
      <trkpt lat="44.6208" lon="6.20205">
        <ele>1329</ele>
        <time>2011-01-18T10:47:45Z</time>
      </trkpt>
      <trkpt lat="44.62091" lon="6.20217">
        <ele>1329</ele>
        <time>2011-01-18T10:47:56Z</time>
      </trkpt>
      <trkpt lat="44.62098" lon="6.20222">
        <ele>1329</ele>
        <time>2011-01-18T10:48:09Z</time>
      </trkpt>
      <trkpt lat="44.62091" lon="6.20209">
        <ele>1329</ele>
        <time>2011-01-18T10:48:19Z</time>
      </trkpt>
      <trkpt lat="44.6208" lon="6.20194">
        <ele>1329</ele>
        <time>2011-01-18T10:48:29Z</time>
      </trkpt>
      <trkpt lat="44.6207" lon="6.20179">
        <ele>1329</ele>
        <time>2011-01-18T10:48:39Z</time>
      </trkpt>
      <trkpt lat="44.62059" lon="6.20162">
        <ele>1329</ele>
        <time>2011-01-18T10:48:50Z</time>
      </trkpt>
      <trkpt lat="44.62051" lon="6.20149">
        <ele>1329</ele>
        <time>2011-01-18T10:49:00Z</time>
      </trkpt>
      <trkpt lat="44.6204" lon="6.20134">
        <ele>1329</ele>
        <time>2011-01-18T10:49:10Z</time>
      </trkpt>
      <trkpt lat="44.62032" lon="6.20118">
        <ele>1329</ele>
        <time>2011-01-18T10:49:20Z</time>
      </trkpt>
      <trkpt lat="44.62023" lon="6.20103">
        <ele>1329</ele>
        <time>2011-01-18T10:49:30Z</time>
      </trkpt>
      <trkpt lat="44.62014" lon="6.20088">
        <ele>1329</ele>
        <time>2011-01-18T10:49:40Z</time>
      </trkpt>
      <trkpt lat="44.62007" lon="6.20071">
        <ele>1329</ele>
        <time>2011-01-18T10:49:50Z</time>
      </trkpt>
      <trkpt lat="44.62001" lon="6.20053">
        <ele>1329</ele>
        <time>2011-01-18T10:50:00Z</time>
      </trkpt>
      <trkpt lat="44.61993" lon="6.20039">
        <ele>1329</ele>
        <time>2011-01-18T10:50:10Z</time>
      </trkpt>
      <trkpt lat="44.6199" lon="6.20044">
        <ele>1329</ele>
        <time>2011-01-18T10:50:20Z</time>
      </trkpt>
      <trkpt lat="44.61992" lon="6.20053">
        <ele>1329</ele>
        <time>2011-01-18T10:50:30Z</time>
      </trkpt>
      <trkpt lat="44.61996" lon="6.20064">
        <ele>1329</ele>
        <time>2011-01-18T10:50:40Z</time>
      </trkpt>
      <trkpt lat="44.62" lon="6.20076">
        <ele>1328</ele>
        <time>2011-01-18T10:50:51Z</time>
      </trkpt>
      <trkpt lat="44.62007" lon="6.2009">
        <ele>1328</ele>
        <time>2011-01-18T10:51:02Z</time>
      </trkpt>
      <trkpt lat="44.62013" lon="6.20103">
        <ele>1328</ele>
        <time>2011-01-18T10:51:12Z</time>
      </trkpt>
      <trkpt lat="44.62019" lon="6.20114">
        <ele>1328</ele>
        <time>2011-01-18T10:51:22Z</time>
      </trkpt>
      <trkpt lat="44.62024" lon="6.20124">
        <ele>1328</ele>
        <time>2011-01-18T10:51:32Z</time>
      </trkpt>
      <trkpt lat="44.62024" lon="6.20126">
        <ele>1328</ele>
        <time>2011-01-18T10:52:02Z</time>
      </trkpt>
      <trkpt lat="44.62027" lon="6.20129">
        <ele>1328</ele>
        <time>2011-01-18T10:52:12Z</time>
      </trkpt>
      <trkpt lat="44.62035" lon="6.20144">
        <ele>1328</ele>
        <time>2011-01-18T10:52:23Z</time>
      </trkpt>
      <trkpt lat="44.62042" lon="6.20158">
        <ele>1328</ele>
        <time>2011-01-18T10:52:33Z</time>
      </trkpt>
      <trkpt lat="44.6205" lon="6.20173">
        <ele>1328</ele>
        <time>2011-01-18T10:52:43Z</time>
      </trkpt>
      <trkpt lat="44.6206" lon="6.20187">
        <ele>1328</ele>
        <time>2011-01-18T10:52:53Z</time>
      </trkpt>
      <trkpt lat="44.62069" lon="6.20199">
        <ele>1328</ele>
        <time>2011-01-18T10:53:03Z</time>
      </trkpt>
      <trkpt lat="44.62078" lon="6.20212">
        <ele>1325</ele>
        <time>2011-01-18T10:53:13Z</time>
      </trkpt>
      <trkpt lat="44.62088" lon="6.20226">
        <ele>1325</ele>
        <time>2011-01-18T10:53:23Z</time>
      </trkpt>
      <trkpt lat="44.62098" lon="6.2024">
        <ele>1325</ele>
        <time>2011-01-18T10:53:33Z</time>
      </trkpt>
      <trkpt lat="44.62106" lon="6.20254">
        <ele>1325</ele>
        <time>2011-01-18T10:53:44Z</time>
      </trkpt>
      <trkpt lat="44.62114" lon="6.20269">
        <ele>1322</ele>
        <time>2011-01-18T10:53:54Z</time>
      </trkpt>
      <trkpt lat="44.62117" lon="6.20287">
        <ele>1321</ele>
        <time>2011-01-18T10:54:04Z</time>
      </trkpt>
      <trkpt lat="44.62122" lon="6.20305">
        <ele>1321</ele>
        <time>2011-01-18T10:54:14Z</time>
      </trkpt>
      <trkpt lat="44.62125" lon="6.20323">
        <ele>1321</ele>
        <time>2011-01-18T10:54:24Z</time>
      </trkpt>
      <trkpt lat="44.62128" lon="6.20341">
        <ele>1321</ele>
        <time>2011-01-18T10:54:34Z</time>
      </trkpt>
      <trkpt lat="44.6213" lon="6.20359">
        <ele>1321</ele>
        <time>2011-01-18T10:54:44Z</time>
      </trkpt>
      <trkpt lat="44.62132" lon="6.20376">
        <ele>1320</ele>
        <time>2011-01-18T10:54:54Z</time>
      </trkpt>
      <trkpt lat="44.62134" lon="6.20394">
        <ele>1320</ele>
        <time>2011-01-18T10:55:04Z</time>
      </trkpt>
      <trkpt lat="44.62135" lon="6.20412">
        <ele>1320</ele>
        <time>2011-01-18T10:55:14Z</time>
      </trkpt>
      <trkpt lat="44.62137" lon="6.20431">
        <ele>1320</ele>
        <time>2011-01-18T10:55:24Z</time>
      </trkpt>
      <trkpt lat="44.62138" lon="6.2045">
        <ele>1320</ele>
        <time>2011-01-18T10:55:34Z</time>
      </trkpt>
      <trkpt lat="44.6214" lon="6.2047">
        <ele>1320</ele>
        <time>2011-01-18T10:55:44Z</time>
      </trkpt>
      <trkpt lat="44.6214" lon="6.20487">
        <ele>1320</ele>
        <time>2011-01-18T10:55:54Z</time>
      </trkpt>
      <trkpt lat="44.6214" lon="6.20505">
        <ele>1320</ele>
        <time>2011-01-18T10:56:04Z</time>
      </trkpt>
      <trkpt lat="44.6214" lon="6.20523">
        <ele>1320</ele>
        <time>2011-01-18T10:56:14Z</time>
      </trkpt>
      <trkpt lat="44.62141" lon="6.2054">
        <ele>1320</ele>
        <time>2011-01-18T10:56:24Z</time>
      </trkpt>
      <trkpt lat="44.62141" lon="6.20558">
        <ele>1320</ele>
        <time>2011-01-18T10:56:34Z</time>
      </trkpt>
      <trkpt lat="44.62142" lon="6.20575">
        <ele>1320</ele>
        <time>2011-01-18T10:56:44Z</time>
      </trkpt>
      <trkpt lat="44.62144" lon="6.20592">
        <ele>1320</ele>
        <time>2011-01-18T10:56:54Z</time>
      </trkpt>
      <trkpt lat="44.62146" lon="6.20609">
        <ele>1322</ele>
        <time>2011-01-18T10:57:04Z</time>
      </trkpt>
      <trkpt lat="44.62149" lon="6.20626">
        <ele>1322</ele>
        <time>2011-01-18T10:57:14Z</time>
      </trkpt>
      <trkpt lat="44.62152" lon="6.20642">
        <ele>1322</ele>
        <time>2011-01-18T10:57:24Z</time>
      </trkpt>
      <trkpt lat="44.62157" lon="6.20658">
        <ele>1323</ele>
        <time>2011-01-18T10:57:34Z</time>
      </trkpt>
      <trkpt lat="44.62161" lon="6.20675">
        <ele>1324</ele>
        <time>2011-01-18T10:57:44Z</time>
      </trkpt>
      <trkpt lat="44.62166" lon="6.20691">
        <ele>1324</ele>
        <time>2011-01-18T10:57:54Z</time>
      </trkpt>
      <trkpt lat="44.62172" lon="6.20708">
        <ele>1326</ele>
        <time>2011-01-18T10:58:04Z</time>
      </trkpt>
      <trkpt lat="44.62176" lon="6.20723">
        <ele>1328</ele>
        <time>2011-01-18T10:58:14Z</time>
      </trkpt>
      <trkpt lat="44.6218" lon="6.2074">
        <ele>1328</ele>
        <time>2011-01-18T10:58:24Z</time>
      </trkpt>
      <trkpt lat="44.62183" lon="6.20756">
        <ele>1328</ele>
        <time>2011-01-18T10:58:34Z</time>
      </trkpt>
      <trkpt lat="44.62186" lon="6.20772">
        <ele>1328</ele>
        <time>2011-01-18T10:58:44Z</time>
      </trkpt>
      <trkpt lat="44.62189" lon="6.20788">
        <ele>1328</ele>
        <time>2011-01-18T10:58:54Z</time>
      </trkpt>
      <trkpt lat="44.62193" lon="6.20805">
        <ele>1328</ele>
        <time>2011-01-18T10:59:04Z</time>
      </trkpt>
      <trkpt lat="44.62196" lon="6.20821">
        <ele>1329</ele>
        <time>2011-01-18T10:59:14Z</time>
      </trkpt>
      <trkpt lat="44.62199" lon="6.20836">
        <ele>1329</ele>
        <time>2011-01-18T10:59:24Z</time>
      </trkpt>
      <trkpt lat="44.62203" lon="6.20852">
        <ele>1331</ele>
        <time>2011-01-18T10:59:34Z</time>
      </trkpt>
      <trkpt lat="44.62206" lon="6.20867">
        <ele>1331</ele>
        <time>2011-01-18T10:59:44Z</time>
      </trkpt>
      <trkpt lat="44.62209" lon="6.20882">
        <ele>1331</ele>
        <time>2011-01-18T10:59:54Z</time>
      </trkpt>
      <trkpt lat="44.62213" lon="6.20897">
        <ele>1331</ele>
        <time>2011-01-18T11:00:04Z</time>
      </trkpt>
      <trkpt lat="44.62215" lon="6.20912">
        <ele>1331</ele>
        <time>2011-01-18T11:00:14Z</time>
      </trkpt>
      <trkpt lat="44.62213" lon="6.20926">
        <ele>1331</ele>
        <time>2011-01-18T11:00:24Z</time>
      </trkpt>
      <trkpt lat="44.62203" lon="6.20933">
        <ele>1333</ele>
        <time>2011-01-18T11:00:34Z</time>
      </trkpt>
      <trkpt lat="44.62191" lon="6.20935">
        <ele>1335</ele>
        <time>2011-01-18T11:00:44Z</time>
      </trkpt>
      <trkpt lat="44.62179" lon="6.20935">
        <ele>1335</ele>
        <time>2011-01-18T11:00:55Z</time>
      </trkpt>
      <trkpt lat="44.62167" lon="6.20935">
        <ele>1335</ele>
        <time>2011-01-18T11:01:06Z</time>
      </trkpt>
      <trkpt lat="44.62156" lon="6.20935">
        <ele>1335</ele>
        <time>2011-01-18T11:01:16Z</time>
      </trkpt>
      <trkpt lat="44.62144" lon="6.20935">
        <ele>1335</ele>
        <time>2011-01-18T11:01:26Z</time>
      </trkpt>
      <trkpt lat="44.62132" lon="6.20934">
        <ele>1337</ele>
        <time>2011-01-18T11:01:37Z</time>
      </trkpt>
      <trkpt lat="44.62121" lon="6.20934">
        <ele>1337</ele>
        <time>2011-01-18T11:01:47Z</time>
      </trkpt>
      <trkpt lat="44.6211" lon="6.20933">
        <ele>1338</ele>
        <time>2011-01-18T11:01:57Z</time>
      </trkpt>
      <trkpt lat="44.621" lon="6.20931">
        <ele>1340</ele>
        <time>2011-01-18T11:02:08Z</time>
      </trkpt>
      <trkpt lat="44.62097" lon="6.20931">
        <ele>1341</ele>
        <time>2011-01-18T11:02:19Z</time>
      </trkpt>
      <trkpt lat="44.62088" lon="6.20932">
        <ele>1343</ele>
        <time>2011-01-18T11:02:30Z</time>
      </trkpt>
      <trkpt lat="44.62077" lon="6.20931">
        <ele>1343</ele>
        <time>2011-01-18T11:02:40Z</time>
      </trkpt>
      <trkpt lat="44.62065" lon="6.20931">
        <ele>1343</ele>
        <time>2011-01-18T11:02:50Z</time>
      </trkpt>
      <trkpt lat="44.62053" lon="6.20931">
        <ele>1345</ele>
        <time>2011-01-18T11:03:00Z</time>
      </trkpt>
      <trkpt lat="44.62041" lon="6.20929">
        <ele>1346</ele>
        <time>2011-01-18T11:03:10Z</time>
      </trkpt>
      <trkpt lat="44.62028" lon="6.20928">
        <ele>1346</ele>
        <time>2011-01-18T11:03:20Z</time>
      </trkpt>
      <trkpt lat="44.62015" lon="6.20926">
        <ele>1346</ele>
        <time>2011-01-18T11:03:30Z</time>
      </trkpt>
      <trkpt lat="44.62003" lon="6.20926">
        <ele>1346</ele>
        <time>2011-01-18T11:03:40Z</time>
      </trkpt>
      <trkpt lat="44.61992" lon="6.20923">
        <ele>1346</ele>
        <time>2011-01-18T11:03:50Z</time>
      </trkpt>
      <trkpt lat="44.6198" lon="6.20921">
        <ele>1348</ele>
        <time>2011-01-18T11:04:00Z</time>
      </trkpt>
      <trkpt lat="44.61967" lon="6.20918">
        <ele>1349</ele>
        <time>2011-01-18T11:04:10Z</time>
      </trkpt>
      <trkpt lat="44.61955" lon="6.20915">
        <ele>1350</ele>
        <time>2011-01-18T11:04:20Z</time>
      </trkpt>
      <trkpt lat="44.61943" lon="6.20912">
        <ele>1350</ele>
        <time>2011-01-18T11:04:30Z</time>
      </trkpt>
      <trkpt lat="44.6193" lon="6.2091">
        <ele>1350</ele>
        <time>2011-01-18T11:04:40Z</time>
      </trkpt>
      <trkpt lat="44.61919" lon="6.20909">
        <ele>1350</ele>
        <time>2011-01-18T11:04:50Z</time>
      </trkpt>
      <trkpt lat="44.61908" lon="6.20911">
        <ele>1350</ele>
        <time>2011-01-18T11:05:00Z</time>
      </trkpt>
      <trkpt lat="44.61897" lon="6.20913">
        <ele>1351</ele>
        <time>2011-01-18T11:05:10Z</time>
      </trkpt>
      <trkpt lat="44.61886" lon="6.20917">
        <ele>1351</ele>
        <time>2011-01-18T11:05:20Z</time>
      </trkpt>
      <trkpt lat="44.61875" lon="6.20922">
        <ele>1351</ele>
        <time>2011-01-18T11:05:30Z</time>
      </trkpt>
      <trkpt lat="44.61865" lon="6.20928">
        <ele>1351</ele>
        <time>2011-01-18T11:05:40Z</time>
      </trkpt>
      <trkpt lat="44.61853" lon="6.20934">
        <ele>1351</ele>
        <time>2011-01-18T11:05:51Z</time>
      </trkpt>
      <trkpt lat="44.61845" lon="6.20942">
        <ele>1351</ele>
        <time>2011-01-18T11:06:01Z</time>
      </trkpt>
      <trkpt lat="44.61836" lon="6.2095">
        <ele>1352</ele>
        <time>2011-01-18T11:06:11Z</time>
      </trkpt>
      <trkpt lat="44.61827" lon="6.20956">
        <ele>1353</ele>
        <time>2011-01-18T11:06:21Z</time>
      </trkpt>
      <trkpt lat="44.61818" lon="6.20964">
        <ele>1353</ele>
        <time>2011-01-18T11:06:31Z</time>
      </trkpt>
      <trkpt lat="44.6181" lon="6.20972">
        <ele>1353</ele>
        <time>2011-01-18T11:06:41Z</time>
      </trkpt>
      <trkpt lat="44.618" lon="6.20979">
        <ele>1353</ele>
        <time>2011-01-18T11:06:51Z</time>
      </trkpt>
      <trkpt lat="44.61787" lon="6.20989">
        <ele>1353</ele>
        <time>2011-01-18T11:07:02Z</time>
      </trkpt>
      <trkpt lat="44.61776" lon="6.20997">
        <ele>1353</ele>
        <time>2011-01-18T11:07:13Z</time>
      </trkpt>
      <trkpt lat="44.61766" lon="6.21004">
        <ele>1353</ele>
        <time>2011-01-18T11:07:23Z</time>
      </trkpt>
      <trkpt lat="44.61754" lon="6.21014">
        <ele>1353</ele>
        <time>2011-01-18T11:07:34Z</time>
      </trkpt>
      <trkpt lat="44.61745" lon="6.21021">
        <ele>1353</ele>
        <time>2011-01-18T11:07:44Z</time>
      </trkpt>
      <trkpt lat="44.61735" lon="6.2103">
        <ele>1353</ele>
        <time>2011-01-18T11:07:54Z</time>
      </trkpt>
      <trkpt lat="44.61724" lon="6.21038">
        <ele>1353</ele>
        <time>2011-01-18T11:08:05Z</time>
      </trkpt>
      <trkpt lat="44.61715" lon="6.21048">
        <ele>1353</ele>
        <time>2011-01-18T11:08:15Z</time>
      </trkpt>
      <trkpt lat="44.61706" lon="6.21057">
        <ele>1353</ele>
        <time>2011-01-18T11:08:25Z</time>
      </trkpt>
      <trkpt lat="44.61697" lon="6.21066">
        <ele>1353</ele>
        <time>2011-01-18T11:08:35Z</time>
      </trkpt>
      <trkpt lat="44.61685" lon="6.21074">
        <ele>1353</ele>
        <time>2011-01-18T11:08:46Z</time>
      </trkpt>
      <trkpt lat="44.61676" lon="6.21083">
        <ele>1354</ele>
        <time>2011-01-18T11:08:56Z</time>
      </trkpt>
      <trkpt lat="44.61663" lon="6.21096">
        <ele>1357</ele>
        <time>2011-01-18T11:09:07Z</time>
      </trkpt>
      <trkpt lat="44.61655" lon="6.21106">
        <ele>1360</ele>
        <time>2011-01-18T11:09:17Z</time>
      </trkpt>
      <trkpt lat="44.61648" lon="6.21116">
        <ele>1361</ele>
        <time>2011-01-18T11:09:27Z</time>
      </trkpt>
      <trkpt lat="44.61642" lon="6.21126">
        <ele>1364</ele>
        <time>2011-01-18T11:09:37Z</time>
      </trkpt>
      <trkpt lat="44.61634" lon="6.21136">
        <ele>1364</ele>
        <time>2011-01-18T11:09:48Z</time>
      </trkpt>
      <trkpt lat="44.61628" lon="6.21147">
        <ele>1364</ele>
        <time>2011-01-18T11:09:58Z</time>
      </trkpt>
      <trkpt lat="44.61623" lon="6.21152">
        <ele>1366</ele>
        <time>2011-01-18T11:10:08Z</time>
      </trkpt>
      <trkpt lat="44.61621" lon="6.21153">
        <ele>1366</ele>
        <time>2011-01-18T11:10:21Z</time>
      </trkpt>
      <trkpt lat="44.61617" lon="6.21165">
        <ele>1368</ele>
        <time>2011-01-18T11:10:31Z</time>
      </trkpt>
      <trkpt lat="44.61609" lon="6.21179">
        <ele>1368</ele>
        <time>2011-01-18T11:10:42Z</time>
      </trkpt>
      <trkpt lat="44.616" lon="6.21188">
        <ele>1368</ele>
        <time>2011-01-18T11:10:52Z</time>
      </trkpt>
      <trkpt lat="44.61593" lon="6.212">
        <ele>1370</ele>
        <time>2011-01-18T11:11:02Z</time>
      </trkpt>
      <trkpt lat="44.6159" lon="6.2121">
        <ele>1372</ele>
        <time>2011-01-18T11:11:12Z</time>
      </trkpt>
      <trkpt lat="44.61588" lon="6.2122">
        <ele>1374</ele>
        <time>2011-01-18T11:11:22Z</time>
      </trkpt>
      <trkpt lat="44.61586" lon="6.2123">
        <ele>1376</ele>
        <time>2011-01-18T11:11:32Z</time>
      </trkpt>
      <trkpt lat="44.61583" lon="6.2124">
        <ele>1377</ele>
        <time>2011-01-18T11:11:42Z</time>
      </trkpt>
      <trkpt lat="44.61581" lon="6.21249">
        <ele>1378</ele>
        <time>2011-01-18T11:11:52Z</time>
      </trkpt>
      <trkpt lat="44.61579" lon="6.2126">
        <ele>1379</ele>
        <time>2011-01-18T11:12:02Z</time>
      </trkpt>
      <trkpt lat="44.61575" lon="6.21271">
        <ele>1380</ele>
        <time>2011-01-18T11:12:12Z</time>
      </trkpt>
      <trkpt lat="44.61573" lon="6.21281">
        <ele>1380</ele>
        <time>2011-01-18T11:12:22Z</time>
      </trkpt>
      <trkpt lat="44.6157" lon="6.21291">
        <ele>1381</ele>
        <time>2011-01-18T11:12:32Z</time>
      </trkpt>
      <trkpt lat="44.61568" lon="6.21303">
        <ele>1386</ele>
        <time>2011-01-18T11:12:42Z</time>
      </trkpt>
      <trkpt lat="44.61566" lon="6.21312">
        <ele>1389</ele>
        <time>2011-01-18T11:12:52Z</time>
      </trkpt>
      <trkpt lat="44.61563" lon="6.21321">
        <ele>1389</ele>
        <time>2011-01-18T11:13:02Z</time>
      </trkpt>
      <trkpt lat="44.61561" lon="6.21331">
        <ele>1390</ele>
        <time>2011-01-18T11:13:12Z</time>
      </trkpt>
      <trkpt lat="44.61559" lon="6.2134">
        <ele>1392</ele>
        <time>2011-01-18T11:13:22Z</time>
      </trkpt>
      <trkpt lat="44.61557" lon="6.2135">
        <ele>1395</ele>
        <time>2011-01-18T11:13:32Z</time>
      </trkpt>
      <trkpt lat="44.61554" lon="6.21359">
        <ele>1397</ele>
        <time>2011-01-18T11:13:42Z</time>
      </trkpt>
      <trkpt lat="44.61552" lon="6.21367">
        <ele>1399</ele>
        <time>2011-01-18T11:13:54Z</time>
      </trkpt>
      <trkpt lat="44.6155" lon="6.21377">
        <ele>1400</ele>
        <time>2011-01-18T11:14:04Z</time>
      </trkpt>
      <trkpt lat="44.61547" lon="6.21385">
        <ele>1402</ele>
        <time>2011-01-18T11:14:14Z</time>
      </trkpt>
      <trkpt lat="44.61545" lon="6.21393">
        <ele>1403</ele>
        <time>2011-01-18T11:14:24Z</time>
      </trkpt>
      <trkpt lat="44.61541" lon="6.21402">
        <ele>1403</ele>
        <time>2011-01-18T11:14:35Z</time>
      </trkpt>
      <trkpt lat="44.61539" lon="6.21411">
        <ele>1403</ele>
        <time>2011-01-18T11:14:45Z</time>
      </trkpt>
      <trkpt lat="44.61537" lon="6.2142">
        <ele>1404</ele>
        <time>2011-01-18T11:14:55Z</time>
      </trkpt>
      <trkpt lat="44.61533" lon="6.21429">
        <ele>1406</ele>
        <time>2011-01-18T11:15:06Z</time>
      </trkpt>
      <trkpt lat="44.61529" lon="6.21437">
        <ele>1408</ele>
        <time>2011-01-18T11:15:17Z</time>
      </trkpt>
      <trkpt lat="44.61524" lon="6.21446">
        <ele>1410</ele>
        <time>2011-01-18T11:15:28Z</time>
      </trkpt>
      <trkpt lat="44.61517" lon="6.21454">
        <ele>1410</ele>
        <time>2011-01-18T11:15:39Z</time>
      </trkpt>
      <trkpt lat="44.61512" lon="6.21462">
        <ele>1412</ele>
        <time>2011-01-18T11:15:49Z</time>
      </trkpt>
      <trkpt lat="44.61507" lon="6.2147">
        <ele>1416</ele>
        <time>2011-01-18T11:16:02Z</time>
      </trkpt>
      <trkpt lat="44.61504" lon="6.2148">
        <ele>1419</ele>
        <time>2011-01-18T11:16:13Z</time>
      </trkpt>
      <trkpt lat="44.61499" lon="6.21489">
        <ele>1422</ele>
        <time>2011-01-18T11:16:24Z</time>
      </trkpt>
      <trkpt lat="44.61494" lon="6.21498">
        <ele>1423</ele>
        <time>2011-01-18T11:16:36Z</time>
      </trkpt>
      <trkpt lat="44.61489" lon="6.21505">
        <ele>1425</ele>
        <time>2011-01-18T11:16:48Z</time>
      </trkpt>
      <trkpt lat="44.61483" lon="6.2151">
        <ele>1425</ele>
        <time>2011-01-18T11:16:58Z</time>
      </trkpt>
      <trkpt lat="44.61478" lon="6.21518">
        <ele>1425</ele>
        <time>2011-01-18T11:17:09Z</time>
      </trkpt>
      <trkpt lat="44.61472" lon="6.21524">
        <ele>1425</ele>
        <time>2011-01-18T11:17:19Z</time>
      </trkpt>
      <trkpt lat="44.61466" lon="6.21529">
        <ele>1425</ele>
        <time>2011-01-18T11:17:30Z</time>
      </trkpt>
      <trkpt lat="44.61461" lon="6.21534">
        <ele>1425</ele>
        <time>2011-01-18T11:17:42Z</time>
      </trkpt>
      <trkpt lat="44.61456" lon="6.2154">
        <ele>1425</ele>
        <time>2011-01-18T11:17:54Z</time>
      </trkpt>
      <trkpt lat="44.61451" lon="6.21545">
        <ele>1425</ele>
        <time>2011-01-18T11:18:04Z</time>
      </trkpt>
      <trkpt lat="44.61445" lon="6.21548">
        <ele>1425</ele>
        <time>2011-01-18T11:18:14Z</time>
      </trkpt>
      <trkpt lat="44.61439" lon="6.21551">
        <ele>1427</ele>
        <time>2011-01-18T11:18:24Z</time>
      </trkpt>
      <trkpt lat="44.61433" lon="6.21553">
        <ele>1428</ele>
        <time>2011-01-18T11:18:34Z</time>
      </trkpt>
      <trkpt lat="44.61424" lon="6.21553">
        <ele>1429</ele>
        <time>2011-01-18T11:18:44Z</time>
      </trkpt>
      <trkpt lat="44.61416" lon="6.21551">
        <ele>1430</ele>
        <time>2011-01-18T11:18:54Z</time>
      </trkpt>
      <trkpt lat="44.6141" lon="6.21549">
        <ele>1431</ele>
        <time>2011-01-18T11:19:04Z</time>
      </trkpt>
      <trkpt lat="44.61401" lon="6.2155">
        <ele>1434</ele>
        <time>2011-01-18T11:19:14Z</time>
      </trkpt>
      <trkpt lat="44.61395" lon="6.21548">
        <ele>1434</ele>
        <time>2011-01-18T11:19:24Z</time>
      </trkpt>
      <trkpt lat="44.61385" lon="6.21546">
        <ele>1435</ele>
        <time>2011-01-18T11:19:35Z</time>
      </trkpt>
      <trkpt lat="44.61375" lon="6.21543">
        <ele>1435</ele>
        <time>2011-01-18T11:19:46Z</time>
      </trkpt>
      <trkpt lat="44.61366" lon="6.21538">
        <ele>1436</ele>
        <time>2011-01-18T11:19:57Z</time>
      </trkpt>
      <trkpt lat="44.61357" lon="6.21536">
        <ele>1437</ele>
        <time>2011-01-18T11:20:07Z</time>
      </trkpt>
      <trkpt lat="44.61349" lon="6.21535">
        <ele>1439</ele>
        <time>2011-01-18T11:20:17Z</time>
      </trkpt>
      <trkpt lat="44.61339" lon="6.21532">
        <ele>1440</ele>
        <time>2011-01-18T11:20:28Z</time>
      </trkpt>
      <trkpt lat="44.6133" lon="6.2153">
        <ele>1442</ele>
        <time>2011-01-18T11:20:38Z</time>
      </trkpt>
      <trkpt lat="44.6132" lon="6.21531">
        <ele>1444</ele>
        <time>2011-01-18T11:20:49Z</time>
      </trkpt>
      <trkpt lat="44.61313" lon="6.2153">
        <ele>1445</ele>
        <time>2011-01-18T11:20:59Z</time>
      </trkpt>
      <trkpt lat="44.61305" lon="6.21533">
        <ele>1445</ele>
        <time>2011-01-18T11:21:09Z</time>
      </trkpt>
      <trkpt lat="44.61298" lon="6.21535">
        <ele>1447</ele>
        <time>2011-01-18T11:21:19Z</time>
      </trkpt>
      <trkpt lat="44.6129" lon="6.21535">
        <ele>1449</ele>
        <time>2011-01-18T11:21:29Z</time>
      </trkpt>
      <trkpt lat="44.61283" lon="6.21534">
        <ele>1449</ele>
        <time>2011-01-18T11:21:39Z</time>
      </trkpt>
      <trkpt lat="44.61275" lon="6.21538">
        <ele>1450</ele>
        <time>2011-01-18T11:21:49Z</time>
      </trkpt>
      <trkpt lat="44.61269" lon="6.21551">
        <ele>1452</ele>
        <time>2011-01-18T11:22:00Z</time>
      </trkpt>
      <trkpt lat="44.61262" lon="6.21562">
        <ele>1452</ele>
        <time>2011-01-18T11:22:11Z</time>
      </trkpt>
      <trkpt lat="44.61253" lon="6.21571">
        <ele>1453</ele>
        <time>2011-01-18T11:22:21Z</time>
      </trkpt>
      <trkpt lat="44.61243" lon="6.21574">
        <ele>1455</ele>
        <time>2011-01-18T11:22:31Z</time>
      </trkpt>
      <trkpt lat="44.61235" lon="6.21577">
        <ele>1458</ele>
        <time>2011-01-18T11:22:41Z</time>
      </trkpt>
      <trkpt lat="44.61225" lon="6.21575">
        <ele>1460</ele>
        <time>2011-01-18T11:22:52Z</time>
      </trkpt>
      <trkpt lat="44.61216" lon="6.21573">
        <ele>1460</ele>
        <time>2011-01-18T11:23:02Z</time>
      </trkpt>
      <trkpt lat="44.61208" lon="6.21568">
        <ele>1463</ele>
        <time>2011-01-18T11:23:14Z</time>
      </trkpt>
      <trkpt lat="44.612" lon="6.21564">
        <ele>1466</ele>
        <time>2011-01-18T11:23:25Z</time>
      </trkpt>
      <trkpt lat="44.61192" lon="6.21565">
        <ele>1468</ele>
        <time>2011-01-18T11:23:35Z</time>
      </trkpt>
      <trkpt lat="44.61184" lon="6.21566">
        <ele>1474</ele>
        <time>2011-01-18T11:23:45Z</time>
      </trkpt>
      <trkpt lat="44.61177" lon="6.21568">
        <ele>1474</ele>
        <time>2011-01-18T11:23:55Z</time>
      </trkpt>
      <trkpt lat="44.61169" lon="6.21572">
        <ele>1474</ele>
        <time>2011-01-18T11:24:05Z</time>
      </trkpt>
      <trkpt lat="44.61161" lon="6.21576">
        <ele>1473</ele>
        <time>2011-01-18T11:24:15Z</time>
      </trkpt>
      <trkpt lat="44.6115" lon="6.21578">
        <ele>1473</ele>
        <time>2011-01-18T11:24:26Z</time>
      </trkpt>
      <trkpt lat="44.61141" lon="6.2158">
        <ele>1473</ele>
        <time>2011-01-18T11:24:37Z</time>
      </trkpt>
      <trkpt lat="44.61131" lon="6.2158">
        <ele>1473</ele>
        <time>2011-01-18T11:24:48Z</time>
      </trkpt>
      <trkpt lat="44.61119" lon="6.21581">
        <ele>1473</ele>
        <time>2011-01-18T11:24:59Z</time>
      </trkpt>
      <trkpt lat="44.6111" lon="6.21586">
        <ele>1473</ele>
        <time>2011-01-18T11:25:10Z</time>
      </trkpt>
      <trkpt lat="44.611" lon="6.21591">
        <ele>1473</ele>
        <time>2011-01-18T11:25:21Z</time>
      </trkpt>
      <trkpt lat="44.61092" lon="6.21597">
        <ele>1473</ele>
        <time>2011-01-18T11:25:32Z</time>
      </trkpt>
      <trkpt lat="44.61083" lon="6.216">
        <ele>1473</ele>
        <time>2011-01-18T11:25:42Z</time>
      </trkpt>
      <trkpt lat="44.61074" lon="6.21603">
        <ele>1474</ele>
        <time>2011-01-18T11:25:52Z</time>
      </trkpt>
      <trkpt lat="44.61064" lon="6.21607">
        <ele>1475</ele>
        <time>2011-01-18T11:26:03Z</time>
      </trkpt>
      <trkpt lat="44.61057" lon="6.21611">
        <ele>1475</ele>
        <time>2011-01-18T11:26:13Z</time>
      </trkpt>
      <trkpt lat="44.61048" lon="6.21614">
        <ele>1476</ele>
        <time>2011-01-18T11:26:23Z</time>
      </trkpt>
      <trkpt lat="44.61037" lon="6.21616">
        <ele>1476</ele>
        <time>2011-01-18T11:26:34Z</time>
      </trkpt>
      <trkpt lat="44.61024" lon="6.21618">
        <ele>1477</ele>
        <time>2011-01-18T11:26:45Z</time>
      </trkpt>
      <trkpt lat="44.61014" lon="6.21618">
        <ele>1478</ele>
        <time>2011-01-18T11:26:55Z</time>
      </trkpt>
      <trkpt lat="44.61003" lon="6.21622">
        <ele>1479</ele>
        <time>2011-01-18T11:27:05Z</time>
      </trkpt>
      <trkpt lat="44.60992" lon="6.21625">
        <ele>1480</ele>
        <time>2011-01-18T11:27:15Z</time>
      </trkpt>
      <trkpt lat="44.60981" lon="6.21627">
        <ele>1482</ele>
        <time>2011-01-18T11:27:25Z</time>
      </trkpt>
      <trkpt lat="44.6097" lon="6.2163">
        <ele>1483</ele>
        <time>2011-01-18T11:27:35Z</time>
      </trkpt>
      <trkpt lat="44.60957" lon="6.21633">
        <ele>1484</ele>
        <time>2011-01-18T11:27:46Z</time>
      </trkpt>
      <trkpt lat="44.60944" lon="6.21637">
        <ele>1485</ele>
        <time>2011-01-18T11:27:57Z</time>
      </trkpt>
      <trkpt lat="44.60932" lon="6.21638">
        <ele>1486</ele>
        <time>2011-01-18T11:28:08Z</time>
      </trkpt>
      <trkpt lat="44.6092" lon="6.21635">
        <ele>1486</ele>
        <time>2011-01-18T11:28:19Z</time>
      </trkpt>
      <trkpt lat="44.60911" lon="6.21632">
        <ele>1487</ele>
        <time>2011-01-18T11:28:29Z</time>
      </trkpt>
      <trkpt lat="44.60899" lon="6.21639">
        <ele>1487</ele>
        <time>2011-01-18T11:28:40Z</time>
      </trkpt>
      <trkpt lat="44.60888" lon="6.21647">
        <ele>1487</ele>
        <time>2011-01-18T11:28:51Z</time>
      </trkpt>
      <trkpt lat="44.6088" lon="6.21656">
        <ele>1488</ele>
        <time>2011-01-18T11:29:01Z</time>
      </trkpt>
      <trkpt lat="44.60874" lon="6.21666">
        <ele>1490</ele>
        <time>2011-01-18T11:29:11Z</time>
      </trkpt>
      <trkpt lat="44.60867" lon="6.21671">
        <ele>1491</ele>
        <time>2011-01-18T11:29:29Z</time>
      </trkpt>
      <trkpt lat="44.60865" lon="6.21676">
        <ele>1500</ele>
        <time>2011-01-18T11:29:40Z</time>
      </trkpt>
      <trkpt lat="44.60865" lon="6.21675">
        <ele>1501</ele>
        <time>2011-01-18T11:29:51Z</time>
      </trkpt>
      <trkpt lat="44.60862" lon="6.21671">
        <ele>1499</ele>
        <time>2011-01-18T11:30:04Z</time>
      </trkpt>
      <trkpt lat="44.60865" lon="6.21674">
        <ele>1499</ele>
        <time>2011-01-18T11:30:25Z</time>
      </trkpt>
      <trkpt lat="44.60863" lon="6.21677">
        <ele>1499</ele>
        <time>2011-01-18T11:30:35Z</time>
      </trkpt>
      <trkpt lat="44.60856" lon="6.21683">
        <ele>1499</ele>
        <time>2011-01-18T11:30:45Z</time>
      </trkpt>
      <trkpt lat="44.6085" lon="6.21689">
        <ele>1499</ele>
        <time>2011-01-18T11:30:55Z</time>
      </trkpt>
      <trkpt lat="44.60843" lon="6.21696">
        <ele>1499</ele>
        <time>2011-01-18T11:31:05Z</time>
      </trkpt>
      <trkpt lat="44.60836" lon="6.21699">
        <ele>1499</ele>
        <time>2011-01-18T11:31:17Z</time>
      </trkpt>
      <trkpt lat="44.6083" lon="6.21705">
        <ele>1499</ele>
        <time>2011-01-18T11:31:29Z</time>
      </trkpt>
      <trkpt lat="44.60824" lon="6.21705">
        <ele>1499</ele>
        <time>2011-01-18T11:31:41Z</time>
      </trkpt>
      <trkpt lat="44.60824" lon="6.21704">
        <ele>1498</ele>
        <time>2011-01-18T11:32:09Z</time>
      </trkpt>
      <trkpt lat="44.60825" lon="6.21704">
        <ele>1495</ele>
        <time>2011-01-18T11:32:26Z</time>
      </trkpt>
      <trkpt lat="44.60825" lon="6.21707">
        <ele>1492</ele>
        <time>2011-01-18T11:32:44Z</time>
      </trkpt>
      <trkpt lat="44.60823" lon="6.21709">
        <ele>1492</ele>
        <time>2011-01-18T11:32:56Z</time>
      </trkpt>
      <trkpt lat="44.60819" lon="6.21712">
        <ele>1492</ele>
        <time>2011-01-18T11:33:07Z</time>
      </trkpt>
      <trkpt lat="44.6081" lon="6.21712">
        <ele>1492</ele>
        <time>2011-01-18T11:33:21Z</time>
      </trkpt>
      <trkpt lat="44.60807" lon="6.21722">
        <ele>1492</ele>
        <time>2011-01-18T11:33:32Z</time>
      </trkpt>
      <trkpt lat="44.60802" lon="6.21722">
        <ele>1495</ele>
        <time>2011-01-18T11:33:44Z</time>
      </trkpt>
      <trkpt lat="44.60796" lon="6.2172">
        <ele>1496</ele>
        <time>2011-01-18T11:33:55Z</time>
      </trkpt>
      <trkpt lat="44.60793" lon="6.21718">
        <ele>1498</ele>
        <time>2011-01-18T11:34:16Z</time>
      </trkpt>
      <trkpt lat="44.60794" lon="6.21721">
        <ele>1499</ele>
        <time>2011-01-18T11:34:27Z</time>
      </trkpt>
      <trkpt lat="44.60793" lon="6.21725">
        <ele>1499</ele>
        <time>2011-01-18T11:34:39Z</time>
      </trkpt>
      <trkpt lat="44.60791" lon="6.21732">
        <ele>1501</ele>
        <time>2011-01-18T11:34:49Z</time>
      </trkpt>
      <trkpt lat="44.60794" lon="6.21734">
        <ele>1502</ele>
        <time>2011-01-18T11:35:02Z</time>
      </trkpt>
      <trkpt lat="44.60794" lon="6.2173">
        <ele>1503</ele>
        <time>2011-01-18T11:35:14Z</time>
      </trkpt>
      <trkpt lat="44.60792" lon="6.21725">
        <ele>1504</ele>
        <time>2011-01-18T11:35:28Z</time>
      </trkpt>
      <trkpt lat="44.60794" lon="6.21721">
        <ele>1503</ele>
        <time>2011-01-18T11:35:42Z</time>
      </trkpt>
      <trkpt lat="44.60795" lon="6.21722">
        <ele>1499</ele>
        <time>2011-01-18T11:35:54Z</time>
      </trkpt>
      <trkpt lat="44.60794" lon="6.21721">
        <ele>1499</ele>
        <time>2011-01-18T11:36:12Z</time>
      </trkpt>
      <trkpt lat="44.60796" lon="6.21721">
        <ele>1499</ele>
        <time>2011-01-18T11:36:23Z</time>
      </trkpt>
      <trkpt lat="44.60796" lon="6.21723">
        <ele>1499</ele>
        <time>2011-01-18T11:36:33Z</time>
      </trkpt>
      <trkpt lat="44.60795" lon="6.21723">
        <ele>1502</ele>
        <time>2011-01-18T11:36:59Z</time>
      </trkpt>
      <trkpt lat="44.60796" lon="6.21722">
        <ele>1502</ele>
        <time>2011-01-18T11:37:20Z</time>
      </trkpt>
      <trkpt lat="44.60795" lon="6.21721">
        <ele>1504</ele>
        <time>2011-01-18T11:37:52Z</time>
      </trkpt>
      <trkpt lat="44.60796" lon="6.21719">
        <ele>1504</ele>
        <time>2011-01-18T11:38:04Z</time>
      </trkpt>
      <trkpt lat="44.60796" lon="6.21721">
        <ele>1504</ele>
        <time>2011-01-18T11:38:25Z</time>
      </trkpt>
      <trkpt lat="44.60795" lon="6.21721">
        <ele>1502</ele>
        <time>2011-01-18T11:40:00Z</time>
      </trkpt>
      <trkpt lat="44.60796" lon="6.21723">
        <ele>1503</ele>
        <time>2011-01-18T11:40:31Z</time>
      </trkpt>
      <trkpt lat="44.60799" lon="6.2172">
        <ele>1503</ele>
        <time>2011-01-18T11:40:42Z</time>
      </trkpt>
      <trkpt lat="44.60803" lon="6.21713">
        <ele>1492</ele>
        <time>2011-01-18T11:41:01Z</time>
      </trkpt>
      <trkpt lat="44.60801" lon="6.21716">
        <ele>1492</ele>
        <time>2011-01-18T11:41:18Z</time>
      </trkpt>
      <trkpt lat="44.60798" lon="6.2172">
        <ele>1493</ele>
        <time>2011-01-18T11:41:33Z</time>
      </trkpt>
      <trkpt lat="44.60797" lon="6.21719">
        <ele>1493</ele>
        <time>2011-01-18T11:41:47Z</time>
      </trkpt>
      <trkpt lat="44.60796" lon="6.21717">
        <ele>1493</ele>
        <time>2011-01-18T11:42:02Z</time>
      </trkpt>
      <trkpt lat="44.60798" lon="6.21714">
        <ele>1493</ele>
        <time>2011-01-18T11:42:23Z</time>
      </trkpt>
      <trkpt lat="44.60797" lon="6.21715">
        <ele>1493</ele>
        <time>2011-01-18T11:42:55Z</time>
      </trkpt>
      <trkpt lat="44.60796" lon="6.21717">
        <ele>1493</ele>
        <time>2011-01-18T11:43:09Z</time>
      </trkpt>
      <trkpt lat="44.60797" lon="6.21716">
        <ele>1493</ele>
        <time>2011-01-18T11:43:24Z</time>
      </trkpt>
      <trkpt lat="44.60795" lon="6.21723">
        <ele>1493</ele>
        <time>2011-01-18T11:43:39Z</time>
      </trkpt>
      <trkpt lat="44.60795" lon="6.21724">
        <ele>1493</ele>
        <time>2011-01-18T11:43:52Z</time>
      </trkpt>
      <trkpt lat="44.60796" lon="6.21721">
        <ele>1498</ele>
        <time>2011-01-18T11:44:03Z</time>
      </trkpt>
      <trkpt lat="44.60797" lon="6.2172">
        <ele>1501</ele>
        <time>2011-01-18T11:44:16Z</time>
      </trkpt>
      <trkpt lat="44.60796" lon="6.2172">
        <ele>1500</ele>
        <time>2011-01-18T11:44:26Z</time>
      </trkpt>
      <trkpt lat="44.60798" lon="6.21718">
        <ele>1492</ele>
        <time>2011-01-18T11:44:40Z</time>
      </trkpt>
      <trkpt lat="44.60797" lon="6.2172">
        <ele>1493</ele>
        <time>2011-01-18T11:44:52Z</time>
      </trkpt>
      <trkpt lat="44.60796" lon="6.21721">
        <ele>1493</ele>
        <time>2011-01-18T11:45:02Z</time>
      </trkpt>
      <trkpt lat="44.60794" lon="6.21726">
        <ele>1494</ele>
        <time>2011-01-18T11:45:19Z</time>
      </trkpt>
      <trkpt lat="44.60793" lon="6.21729">
        <ele>1502</ele>
        <time>2011-01-18T11:45:49Z</time>
      </trkpt>
      <trkpt lat="44.60793" lon="6.21726">
        <ele>1504</ele>
        <time>2011-01-18T11:46:01Z</time>
      </trkpt>
      <trkpt lat="44.60795" lon="6.21726">
        <ele>1508</ele>
        <time>2011-01-18T11:46:25Z</time>
      </trkpt>
      <trkpt lat="44.60797" lon="6.21723">
        <ele>1508</ele>
        <time>2011-01-18T11:46:36Z</time>
      </trkpt>
      <trkpt lat="44.60796" lon="6.21723">
        <ele>1497</ele>
        <time>2011-01-18T11:47:07Z</time>
      </trkpt>
      <trkpt lat="44.60794" lon="6.21723">
        <ele>1500</ele>
        <time>2011-01-18T11:47:22Z</time>
      </trkpt>
      <trkpt lat="44.60796" lon="6.21718">
        <ele>1500</ele>
        <time>2011-01-18T11:47:34Z</time>
      </trkpt>
      <trkpt lat="44.60796" lon="6.21719">
        <ele>1500</ele>
        <time>2011-01-18T11:48:24Z</time>
      </trkpt>
      <trkpt lat="44.60796" lon="6.21721">
        <ele>1500</ele>
        <time>2011-01-18T11:48:34Z</time>
      </trkpt>
      <trkpt lat="44.60788" lon="6.2172">
        <ele>1500</ele>
        <time>2011-01-18T11:48:45Z</time>
      </trkpt>
      <trkpt lat="44.6079" lon="6.21719">
        <ele>1506</ele>
        <time>2011-01-18T11:49:25Z</time>
      </trkpt>
      <trkpt lat="44.60797" lon="6.2172">
        <ele>1506</ele>
        <time>2011-01-18T11:49:38Z</time>
      </trkpt>
      <trkpt lat="44.60798" lon="6.21717">
        <ele>1504</ele>
        <time>2011-01-18T11:49:51Z</time>
      </trkpt>
      <trkpt lat="44.60797" lon="6.2172">
        <ele>1503</ele>
        <time>2011-01-18T11:50:06Z</time>
      </trkpt>
      <trkpt lat="44.60794" lon="6.21721">
        <ele>1503</ele>
        <time>2011-01-18T11:50:16Z</time>
      </trkpt>
      <trkpt lat="44.60793" lon="6.21721">
        <ele>1502</ele>
        <time>2011-01-18T11:50:27Z</time>
      </trkpt>
      <trkpt lat="44.60792" lon="6.21722">
        <ele>1499</ele>
        <time>2011-01-18T11:50:40Z</time>
      </trkpt>
      <trkpt lat="44.60793" lon="6.21723">
        <ele>1499</ele>
        <time>2011-01-18T11:51:20Z</time>
      </trkpt>
      <trkpt lat="44.60794" lon="6.21721">
        <ele>1499</ele>
        <time>2011-01-18T11:51:34Z</time>
      </trkpt>
      <trkpt lat="44.60793" lon="6.21726">
        <ele>1499</ele>
        <time>2011-01-18T11:51:45Z</time>
      </trkpt>
      <trkpt lat="44.60793" lon="6.21726">
        <ele>1499</ele>
        <time>2011-01-18T11:51:58Z</time>
      </trkpt>
      <trkpt lat="44.60793" lon="6.21724">
        <ele>1499</ele>
        <time>2011-01-18T11:52:10Z</time>
      </trkpt>
      <trkpt lat="44.60794" lon="6.21722">
        <ele>1497</ele>
        <time>2011-01-18T11:52:49Z</time>
      </trkpt>
      <trkpt lat="44.60796" lon="6.21722">
        <ele>1497</ele>
        <time>2011-01-18T11:53:11Z</time>
      </trkpt>
      <trkpt lat="44.60796" lon="6.21721">
        <ele>1497</ele>
        <time>2011-01-18T11:53:30Z</time>
      </trkpt>
      <trkpt lat="44.60798" lon="6.21718">
        <ele>1496</ele>
        <time>2011-01-18T11:53:44Z</time>
      </trkpt>
      <trkpt lat="44.60797" lon="6.21719">
        <ele>1495</ele>
        <time>2011-01-18T11:54:35Z</time>
      </trkpt>
      <trkpt lat="44.60795" lon="6.21721">
        <ele>1498</ele>
        <time>2011-01-18T11:55:01Z</time>
      </trkpt>
      <trkpt lat="44.60793" lon="6.21724">
        <ele>1500</ele>
        <time>2011-01-18T11:55:12Z</time>
      </trkpt>
      <trkpt lat="44.60792" lon="6.21726">
        <ele>1500</ele>
        <time>2011-01-18T11:55:22Z</time>
      </trkpt>
      <trkpt lat="44.60791" lon="6.21727">
        <ele>1500</ele>
        <time>2011-01-18T11:55:32Z</time>
      </trkpt>
      <trkpt lat="44.60792" lon="6.21724">
        <ele>1500</ele>
        <time>2011-01-18T11:55:46Z</time>
      </trkpt>
      <trkpt lat="44.60796" lon="6.2172">
        <ele>1498</ele>
        <time>2011-01-18T11:56:04Z</time>
      </trkpt>
      <trkpt lat="44.60796" lon="6.21719">
        <ele>1497</ele>
        <time>2011-01-18T11:56:21Z</time>
      </trkpt>
      <trkpt lat="44.60793" lon="6.2172">
        <ele>1495</ele>
        <time>2011-01-18T11:56:34Z</time>
      </trkpt>
      <trkpt lat="44.60795" lon="6.2172">
        <ele>1496</ele>
        <time>2011-01-18T11:57:00Z</time>
      </trkpt>
      <trkpt lat="44.60794" lon="6.21721">
        <ele>1494</ele>
        <time>2011-01-18T11:57:14Z</time>
      </trkpt>
      <trkpt lat="44.60794" lon="6.21723">
        <ele>1494</ele>
        <time>2011-01-18T11:57:43Z</time>
      </trkpt>
      <trkpt lat="44.60794" lon="6.21721">
        <ele>1494</ele>
        <time>2011-01-18T11:57:54Z</time>
      </trkpt>
      <trkpt lat="44.60795" lon="6.21719">
        <ele>1494</ele>
        <time>2011-01-18T11:58:08Z</time>
      </trkpt>
      <trkpt lat="44.60794" lon="6.21718">
        <ele>1494</ele>
        <time>2011-01-18T11:58:22Z</time>
      </trkpt>
      <trkpt lat="44.60794" lon="6.21723">
        <ele>1494</ele>
        <time>2011-01-18T11:58:40Z</time>
      </trkpt>
      <trkpt lat="44.60795" lon="6.2172">
        <ele>1489</ele>
        <time>2011-01-18T11:59:06Z</time>
      </trkpt>
      <trkpt lat="44.60796" lon="6.21718">
        <ele>1488</ele>
        <time>2011-01-18T11:59:22Z</time>
      </trkpt>
      <trkpt lat="44.60795" lon="6.21717">
        <ele>1488</ele>
        <time>2011-01-18T11:59:46Z</time>
      </trkpt>
      <trkpt lat="44.60795" lon="6.21721">
        <ele>1491</ele>
        <time>2011-01-18T11:59:59Z</time>
      </trkpt>
      <trkpt lat="44.60793" lon="6.21724">
        <ele>1494</ele>
        <time>2011-01-18T12:00:18Z</time>
      </trkpt>
      <trkpt lat="44.60793" lon="6.21723">
        <ele>1496</ele>
        <time>2011-01-18T12:00:37Z</time>
      </trkpt>
      <trkpt lat="44.60794" lon="6.21722">
        <ele>1490</ele>
        <time>2011-01-18T12:01:00Z</time>
      </trkpt>
      <trkpt lat="44.60798" lon="6.21722">
        <ele>1497</ele>
        <time>2011-01-18T12:01:12Z</time>
      </trkpt>
      <trkpt lat="44.60796" lon="6.21723">
        <ele>1498</ele>
        <time>2011-01-18T12:01:24Z</time>
      </trkpt>
      <trkpt lat="44.60795" lon="6.21719">
        <ele>1490</ele>
        <time>2011-01-18T12:01:52Z</time>
      </trkpt>
      <trkpt lat="44.60795" lon="6.2172">
        <ele>1489</ele>
        <time>2011-01-18T12:02:08Z</time>
      </trkpt>
      <trkpt lat="44.60796" lon="6.2172">
        <ele>1498</ele>
        <time>2011-01-18T12:02:37Z</time>
      </trkpt>
      <trkpt lat="44.60799" lon="6.21717">
        <ele>1498</ele>
        <time>2011-01-18T12:02:54Z</time>
      </trkpt>
      <trkpt lat="44.60796" lon="6.2172">
        <ele>1497</ele>
        <time>2011-01-18T12:03:07Z</time>
      </trkpt>
      <trkpt lat="44.60795" lon="6.21719">
        <ele>1494</ele>
        <time>2011-01-18T12:03:29Z</time>
      </trkpt>
      <trkpt lat="44.60794" lon="6.2172">
        <ele>1499</ele>
        <time>2011-01-18T12:04:17Z</time>
      </trkpt>
      <trkpt lat="44.60794" lon="6.21723">
        <ele>1501</ele>
        <time>2011-01-18T12:04:29Z</time>
      </trkpt>
      <trkpt lat="44.60793" lon="6.21727">
        <ele>1501</ele>
        <time>2011-01-18T12:04:40Z</time>
      </trkpt>
      <trkpt lat="44.60792" lon="6.21732">
        <ele>1507</ele>
        <time>2011-01-18T12:04:57Z</time>
      </trkpt>
      <trkpt lat="44.60792" lon="6.21724">
        <ele>1503</ele>
        <time>2011-01-18T12:05:08Z</time>
      </trkpt>
      <trkpt lat="44.60792" lon="6.2172">
        <ele>1502</ele>
        <time>2011-01-18T12:05:19Z</time>
      </trkpt>
      <trkpt lat="44.60791" lon="6.21718">
        <ele>1498</ele>
        <time>2011-01-18T12:05:37Z</time>
      </trkpt>
      <trkpt lat="44.60793" lon="6.21719">
        <ele>1496</ele>
        <time>2011-01-18T12:05:47Z</time>
      </trkpt>
      <trkpt lat="44.60795" lon="6.21721">
        <ele>1496</ele>
        <time>2011-01-18T12:06:14Z</time>
      </trkpt>
      <trkpt lat="44.60794" lon="6.21719">
        <ele>1496</ele>
        <time>2011-01-18T12:06:28Z</time>
      </trkpt>
      <trkpt lat="44.60794" lon="6.21721">
        <ele>1496</ele>
        <time>2011-01-18T12:06:42Z</time>
      </trkpt>
      <trkpt lat="44.60799" lon="6.21717">
        <ele>1496</ele>
        <time>2011-01-18T12:06:52Z</time>
      </trkpt>
      <trkpt lat="44.608" lon="6.21714">
        <ele>1496</ele>
        <time>2011-01-18T12:07:11Z</time>
      </trkpt>
      <trkpt lat="44.60798" lon="6.21717">
        <ele>1495</ele>
        <time>2011-01-18T12:07:21Z</time>
      </trkpt>
      <trkpt lat="44.60798" lon="6.21716">
        <ele>1494</ele>
        <time>2011-01-18T12:07:32Z</time>
      </trkpt>
      <trkpt lat="44.60796" lon="6.21718">
        <ele>1496</ele>
        <time>2011-01-18T12:07:50Z</time>
      </trkpt>
      <trkpt lat="44.60796" lon="6.21721">
        <ele>1497</ele>
        <time>2011-01-18T12:08:04Z</time>
      </trkpt>
      <trkpt lat="44.60795" lon="6.2172">
        <ele>1496</ele>
        <time>2011-01-18T12:08:19Z</time>
      </trkpt>
      <trkpt lat="44.60794" lon="6.2172">
        <ele>1493</ele>
        <time>2011-01-18T12:08:33Z</time>
      </trkpt>
      <trkpt lat="44.60792" lon="6.21721">
        <ele>1491</ele>
        <time>2011-01-18T12:08:47Z</time>
      </trkpt>
      <trkpt lat="44.60792" lon="6.2172">
        <ele>1498</ele>
        <time>2011-01-18T12:09:04Z</time>
      </trkpt>
      <trkpt lat="44.60791" lon="6.2172">
        <ele>1502</ele>
        <time>2011-01-18T12:09:25Z</time>
      </trkpt>
      <trkpt lat="44.6079" lon="6.21718">
        <ele>1506</ele>
        <time>2011-01-18T12:09:53Z</time>
      </trkpt>
      <trkpt lat="44.60789" lon="6.21718">
        <ele>1506</ele>
        <time>2011-01-18T12:10:03Z</time>
      </trkpt>
      <trkpt lat="44.60786" lon="6.21718">
        <ele>1510</ele>
        <time>2011-01-18T12:10:18Z</time>
      </trkpt>
      <trkpt lat="44.60786" lon="6.21714">
        <ele>1510</ele>
        <time>2011-01-18T12:10:36Z</time>
      </trkpt>
      <trkpt lat="44.60786" lon="6.21711">
        <ele>1510</ele>
        <time>2011-01-18T12:10:50Z</time>
      </trkpt>
      <trkpt lat="44.6078" lon="6.21712">
        <ele>1510</ele>
        <time>2011-01-18T12:11:02Z</time>
      </trkpt>
      <trkpt lat="44.60775" lon="6.21714">
        <ele>1510</ele>
        <time>2011-01-18T12:11:12Z</time>
      </trkpt>
      <trkpt lat="44.60769" lon="6.21715">
        <ele>1510</ele>
        <time>2011-01-18T12:11:22Z</time>
      </trkpt>
      <trkpt lat="44.60761" lon="6.21716">
        <ele>1510</ele>
        <time>2011-01-18T12:11:32Z</time>
      </trkpt>
      <trkpt lat="44.60753" lon="6.21717">
        <ele>1510</ele>
        <time>2011-01-18T12:11:42Z</time>
      </trkpt>
      <trkpt lat="44.60745" lon="6.21716">
        <ele>1510</ele>
        <time>2011-01-18T12:11:52Z</time>
      </trkpt>
      <trkpt lat="44.60735" lon="6.21716">
        <ele>1509</ele>
        <time>2011-01-18T12:12:02Z</time>
      </trkpt>
      <trkpt lat="44.60725" lon="6.21717">
        <ele>1509</ele>
        <time>2011-01-18T12:12:13Z</time>
      </trkpt>
      <trkpt lat="44.60718" lon="6.21718">
        <ele>1509</ele>
        <time>2011-01-18T12:12:23Z</time>
      </trkpt>
      <trkpt lat="44.60711" lon="6.21722">
        <ele>1509</ele>
        <time>2011-01-18T12:12:36Z</time>
      </trkpt>
      <trkpt lat="44.60706" lon="6.21728">
        <ele>1509</ele>
        <time>2011-01-18T12:12:47Z</time>
      </trkpt>
      <trkpt lat="44.607" lon="6.21737">
        <ele>1509</ele>
        <time>2011-01-18T12:12:57Z</time>
      </trkpt>
      <trkpt lat="44.60694" lon="6.21745">
        <ele>1509</ele>
        <time>2011-01-18T12:13:07Z</time>
      </trkpt>
      <trkpt lat="44.60688" lon="6.21749">
        <ele>1510</ele>
        <time>2011-01-18T12:13:17Z</time>
      </trkpt>
      <trkpt lat="44.60681" lon="6.21754">
        <ele>1511</ele>
        <time>2011-01-18T12:13:28Z</time>
      </trkpt>
      <trkpt lat="44.60674" lon="6.21757">
        <ele>1512</ele>
        <time>2011-01-18T12:13:38Z</time>
      </trkpt>
      <trkpt lat="44.60668" lon="6.2176">
        <ele>1513</ele>
        <time>2011-01-18T12:13:49Z</time>
      </trkpt>
      <trkpt lat="44.60661" lon="6.21764">
        <ele>1514</ele>
        <time>2011-01-18T12:13:59Z</time>
      </trkpt>
      <trkpt lat="44.60653" lon="6.21767">
        <ele>1515</ele>
        <time>2011-01-18T12:14:09Z</time>
      </trkpt>
      <trkpt lat="44.60645" lon="6.21769">
        <ele>1516</ele>
        <time>2011-01-18T12:14:19Z</time>
      </trkpt>
      <trkpt lat="44.60637" lon="6.2177">
        <ele>1518</ele>
        <time>2011-01-18T12:14:29Z</time>
      </trkpt>
      <trkpt lat="44.60629" lon="6.21775">
        <ele>1519</ele>
        <time>2011-01-18T12:14:39Z</time>
      </trkpt>
      <trkpt lat="44.60619" lon="6.21779">
        <ele>1521</ele>
        <time>2011-01-18T12:14:49Z</time>
      </trkpt>
      <trkpt lat="44.6061" lon="6.21782">
        <ele>1522</ele>
        <time>2011-01-18T12:14:59Z</time>
      </trkpt>
      <trkpt lat="44.60603" lon="6.21786">
        <ele>1524</ele>
        <time>2011-01-18T12:15:09Z</time>
      </trkpt>
      <trkpt lat="44.60594" lon="6.21788">
        <ele>1526</ele>
        <time>2011-01-18T12:15:19Z</time>
      </trkpt>
      <trkpt lat="44.60587" lon="6.21792">
        <ele>1527</ele>
        <time>2011-01-18T12:15:29Z</time>
      </trkpt>
      <trkpt lat="44.60579" lon="6.21795">
        <ele>1528</ele>
        <time>2011-01-18T12:15:39Z</time>
      </trkpt>
      <trkpt lat="44.6057" lon="6.21797">
        <ele>1529</ele>
        <time>2011-01-18T12:15:49Z</time>
      </trkpt>
      <trkpt lat="44.60563" lon="6.21801">
        <ele>1530</ele>
        <time>2011-01-18T12:15:59Z</time>
      </trkpt>
      <trkpt lat="44.60556" lon="6.21803">
        <ele>1532</ele>
        <time>2011-01-18T12:16:10Z</time>
      </trkpt>
      <trkpt lat="44.60548" lon="6.21806">
        <ele>1532</ele>
        <time>2011-01-18T12:16:20Z</time>
      </trkpt>
      <trkpt lat="44.6054" lon="6.2181">
        <ele>1533</ele>
        <time>2011-01-18T12:16:30Z</time>
      </trkpt>
      <trkpt lat="44.60532" lon="6.21816">
        <ele>1535</ele>
        <time>2011-01-18T12:16:40Z</time>
      </trkpt>
      <trkpt lat="44.60524" lon="6.21821">
        <ele>1535</ele>
        <time>2011-01-18T12:16:50Z</time>
      </trkpt>
      <trkpt lat="44.60516" lon="6.21828">
        <ele>1536</ele>
        <time>2011-01-18T12:17:00Z</time>
      </trkpt>
      <trkpt lat="44.60509" lon="6.21834">
        <ele>1537</ele>
        <time>2011-01-18T12:17:10Z</time>
      </trkpt>
      <trkpt lat="44.60502" lon="6.21838">
        <ele>1538</ele>
        <time>2011-01-18T12:17:20Z</time>
      </trkpt>
      <trkpt lat="44.60495" lon="6.21843">
        <ele>1538</ele>
        <time>2011-01-18T12:17:30Z</time>
      </trkpt>
      <trkpt lat="44.60487" lon="6.21849">
        <ele>1539</ele>
        <time>2011-01-18T12:17:40Z</time>
      </trkpt>
      <trkpt lat="44.60479" lon="6.21856">
        <ele>1541</ele>
        <time>2011-01-18T12:17:50Z</time>
      </trkpt>
      <trkpt lat="44.60471" lon="6.21861">
        <ele>1542</ele>
        <time>2011-01-18T12:18:00Z</time>
      </trkpt>
      <trkpt lat="44.60463" lon="6.21866">
        <ele>1542</ele>
        <time>2011-01-18T12:18:10Z</time>
      </trkpt>
      <trkpt lat="44.60456" lon="6.21873">
        <ele>1542</ele>
        <time>2011-01-18T12:18:20Z</time>
      </trkpt>
      <trkpt lat="44.6045" lon="6.21882">
        <ele>1544</ele>
        <time>2011-01-18T12:18:30Z</time>
      </trkpt>
      <trkpt lat="44.60448" lon="6.21893">
        <ele>1546</ele>
        <time>2011-01-18T12:18:40Z</time>
      </trkpt>
      <trkpt lat="44.60446" lon="6.21904">
        <ele>1547</ele>
        <time>2011-01-18T12:18:50Z</time>
      </trkpt>
      <trkpt lat="44.60445" lon="6.21915">
        <ele>1549</ele>
        <time>2011-01-18T12:19:00Z</time>
      </trkpt>
      <trkpt lat="44.6044" lon="6.21922">
        <ele>1550</ele>
        <time>2011-01-18T12:19:12Z</time>
      </trkpt>
      <trkpt lat="44.60434" lon="6.21928">
        <ele>1551</ele>
        <time>2011-01-18T12:19:22Z</time>
      </trkpt>
      <trkpt lat="44.60431" lon="6.21937">
        <ele>1552</ele>
        <time>2011-01-18T12:19:32Z</time>
      </trkpt>
      <trkpt lat="44.60423" lon="6.21939">
        <ele>1553</ele>
        <time>2011-01-18T12:19:42Z</time>
      </trkpt>
      <trkpt lat="44.60422" lon="6.21941">
        <ele>1554</ele>
        <time>2011-01-18T12:19:59Z</time>
      </trkpt>
      <trkpt lat="44.60418" lon="6.21951">
        <ele>1554</ele>
        <time>2011-01-18T12:20:09Z</time>
      </trkpt>
      <trkpt lat="44.60415" lon="6.21959">
        <ele>1555</ele>
        <time>2011-01-18T12:20:23Z</time>
      </trkpt>
      <trkpt lat="44.6041" lon="6.21969">
        <ele>1556</ele>
        <time>2011-01-18T12:20:33Z</time>
      </trkpt>
      <trkpt lat="44.60404" lon="6.2197">
        <ele>1558</ele>
        <time>2011-01-18T12:20:44Z</time>
      </trkpt>
      <trkpt lat="44.604" lon="6.21969">
        <ele>1559</ele>
        <time>2011-01-18T12:21:00Z</time>
      </trkpt>
      <trkpt lat="44.6039" lon="6.21966">
        <ele>1559</ele>
        <time>2011-01-18T12:21:10Z</time>
      </trkpt>
      <trkpt lat="44.60381" lon="6.21963">
        <ele>1559</ele>
        <time>2011-01-18T12:21:20Z</time>
      </trkpt>
      <trkpt lat="44.60371" lon="6.21962">
        <ele>1560</ele>
        <time>2011-01-18T12:21:31Z</time>
      </trkpt>
      <trkpt lat="44.6036" lon="6.21962">
        <ele>1561</ele>
        <time>2011-01-18T12:21:42Z</time>
      </trkpt>
      <trkpt lat="44.60348" lon="6.21959">
        <ele>1562</ele>
        <time>2011-01-18T12:21:53Z</time>
      </trkpt>
      <trkpt lat="44.60337" lon="6.21958">
        <ele>1563</ele>
        <time>2011-01-18T12:22:04Z</time>
      </trkpt>
      <trkpt lat="44.60327" lon="6.21959">
        <ele>1564</ele>
        <time>2011-01-18T12:22:14Z</time>
      </trkpt>
      <trkpt lat="44.60323" lon="6.21962">
        <ele>1565</ele>
        <time>2011-01-18T12:22:26Z</time>
      </trkpt>
      <trkpt lat="44.60313" lon="6.21964">
        <ele>1565</ele>
        <time>2011-01-18T12:22:37Z</time>
      </trkpt>
      <trkpt lat="44.60313" lon="6.21955">
        <ele>1565</ele>
        <time>2011-01-18T12:22:47Z</time>
      </trkpt>
      <trkpt lat="44.60303" lon="6.21953">
        <ele>1565</ele>
        <time>2011-01-18T12:22:58Z</time>
      </trkpt>
      <trkpt lat="44.60292" lon="6.21953">
        <ele>1565</ele>
        <time>2011-01-18T12:23:08Z</time>
      </trkpt>
      <trkpt lat="44.6028" lon="6.21956">
        <ele>1565</ele>
        <time>2011-01-18T12:23:18Z</time>
      </trkpt>
      <trkpt lat="44.60267" lon="6.21958">
        <ele>1566</ele>
        <time>2011-01-18T12:23:28Z</time>
      </trkpt>
      <trkpt lat="44.60254" lon="6.21962">
        <ele>1567</ele>
        <time>2011-01-18T12:23:38Z</time>
      </trkpt>
      <trkpt lat="44.60242" lon="6.21965">
        <ele>1568</ele>
        <time>2011-01-18T12:23:48Z</time>
      </trkpt>
      <trkpt lat="44.6023" lon="6.21969">
        <ele>1568</ele>
        <time>2011-01-18T12:23:58Z</time>
      </trkpt>
      <trkpt lat="44.60216" lon="6.21973">
        <ele>1568</ele>
        <time>2011-01-18T12:24:09Z</time>
      </trkpt>
      <trkpt lat="44.60204" lon="6.21978">
        <ele>1569</ele>
        <time>2011-01-18T12:24:19Z</time>
      </trkpt>
      <trkpt lat="44.60191" lon="6.21983">
        <ele>1570</ele>
        <time>2011-01-18T12:24:29Z</time>
      </trkpt>
      <trkpt lat="44.6018" lon="6.21989">
        <ele>1571</ele>
        <time>2011-01-18T12:24:39Z</time>
      </trkpt>
      <trkpt lat="44.60168" lon="6.21992">
        <ele>1572</ele>
        <time>2011-01-18T12:24:49Z</time>
      </trkpt>
      <trkpt lat="44.60156" lon="6.21997">
        <ele>1572</ele>
        <time>2011-01-18T12:24:59Z</time>
      </trkpt>
      <trkpt lat="44.60144" lon="6.22002">
        <ele>1572</ele>
        <time>2011-01-18T12:25:09Z</time>
      </trkpt>
      <trkpt lat="44.60133" lon="6.22007">
        <ele>1573</ele>
        <time>2011-01-18T12:25:19Z</time>
      </trkpt>
      <trkpt lat="44.60121" lon="6.22011">
        <ele>1573</ele>
        <time>2011-01-18T12:25:29Z</time>
      </trkpt>
      <trkpt lat="44.60109" lon="6.22014">
        <ele>1573</ele>
        <time>2011-01-18T12:25:39Z</time>
      </trkpt>
      <trkpt lat="44.60101" lon="6.22014">
        <ele>1573</ele>
        <time>2011-01-18T12:25:52Z</time>
      </trkpt>
      <trkpt lat="44.60104" lon="6.22015">
        <ele>1573</ele>
        <time>2011-01-18T12:26:07Z</time>
      </trkpt>
      <trkpt lat="44.60105" lon="6.22015">
        <ele>1573</ele>
        <time>2011-01-18T12:26:17Z</time>
      </trkpt>
      <trkpt lat="44.60105" lon="6.22017">
        <ele>1573</ele>
        <time>2011-01-18T12:26:50Z</time>
      </trkpt>
      <trkpt lat="44.60104" lon="6.22017">
        <ele>1573</ele>
        <time>2011-01-18T12:27:21Z</time>
      </trkpt>
      <trkpt lat="44.60099" lon="6.2202">
        <ele>1573</ele>
        <time>2011-01-18T12:27:32Z</time>
      </trkpt>
      <trkpt lat="44.60088" lon="6.22027">
        <ele>1573</ele>
        <time>2011-01-18T12:27:42Z</time>
      </trkpt>
      <trkpt lat="44.60078" lon="6.22033">
        <ele>1573</ele>
        <time>2011-01-18T12:27:52Z</time>
      </trkpt>
      <trkpt lat="44.60068" lon="6.22039">
        <ele>1573</ele>
        <time>2011-01-18T12:28:02Z</time>
      </trkpt>
      <trkpt lat="44.60058" lon="6.22047">
        <ele>1573</ele>
        <time>2011-01-18T12:28:12Z</time>
      </trkpt>
      <trkpt lat="44.60046" lon="6.22055">
        <ele>1573</ele>
        <time>2011-01-18T12:28:23Z</time>
      </trkpt>
      <trkpt lat="44.60035" lon="6.22062">
        <ele>1573</ele>
        <time>2011-01-18T12:28:34Z</time>
      </trkpt>
      <trkpt lat="44.60026" lon="6.22068">
        <ele>1573</ele>
        <time>2011-01-18T12:28:44Z</time>
      </trkpt>
      <trkpt lat="44.60016" lon="6.22069">
        <ele>1573</ele>
        <time>2011-01-18T12:28:54Z</time>
      </trkpt>
      <trkpt lat="44.60009" lon="6.22061">
        <ele>1573</ele>
        <time>2011-01-18T12:29:04Z</time>
      </trkpt>
      <trkpt lat="44.60004" lon="6.2205">
        <ele>1572</ele>
        <time>2011-01-18T12:29:14Z</time>
      </trkpt>
      <trkpt lat="44.60001" lon="6.22037">
        <ele>1572</ele>
        <time>2011-01-18T12:29:24Z</time>
      </trkpt>
      <trkpt lat="44.59999" lon="6.22022">
        <ele>1571</ele>
        <time>2011-01-18T12:29:35Z</time>
      </trkpt>
      <trkpt lat="44.59997" lon="6.22009">
        <ele>1571</ele>
        <time>2011-01-18T12:29:45Z</time>
      </trkpt>
      <trkpt lat="44.59994" lon="6.21993">
        <ele>1571</ele>
        <time>2011-01-18T12:29:56Z</time>
      </trkpt>
      <trkpt lat="44.59993" lon="6.21978">
        <ele>1571</ele>
        <time>2011-01-18T12:30:07Z</time>
      </trkpt>
      <trkpt lat="44.59991" lon="6.21968">
        <ele>1571</ele>
        <time>2011-01-18T12:30:17Z</time>
      </trkpt>
      <trkpt lat="44.5999" lon="6.21959">
        <ele>1571</ele>
        <time>2011-01-18T12:30:28Z</time>
      </trkpt>
      <trkpt lat="44.59984" lon="6.21949">
        <ele>1570</ele>
        <time>2011-01-18T12:30:39Z</time>
      </trkpt>
      <trkpt lat="44.59979" lon="6.21939">
        <ele>1569</ele>
        <time>2011-01-18T12:30:50Z</time>
      </trkpt>
      <trkpt lat="44.59973" lon="6.21932">
        <ele>1568</ele>
        <time>2011-01-18T12:31:01Z</time>
      </trkpt>
      <trkpt lat="44.59966" lon="6.21925">
        <ele>1568</ele>
        <time>2011-01-18T12:31:12Z</time>
      </trkpt>
      <trkpt lat="44.59964" lon="6.21919">
        <ele>1567</ele>
        <time>2011-01-18T12:31:24Z</time>
      </trkpt>
      <trkpt lat="44.59961" lon="6.21911">
        <ele>1566</ele>
        <time>2011-01-18T12:31:34Z</time>
      </trkpt>
      <trkpt lat="44.59961" lon="6.21901">
        <ele>1566</ele>
        <time>2011-01-18T12:31:44Z</time>
      </trkpt>
      <trkpt lat="44.59961" lon="6.21891">
        <ele>1566</ele>
        <time>2011-01-18T12:31:54Z</time>
      </trkpt>
      <trkpt lat="44.59962" lon="6.21877">
        <ele>1565</ele>
        <time>2011-01-18T12:32:04Z</time>
      </trkpt>
      <trkpt lat="44.59962" lon="6.21864">
        <ele>1565</ele>
        <time>2011-01-18T12:32:15Z</time>
      </trkpt>
      <trkpt lat="44.59963" lon="6.2185">
        <ele>1565</ele>
        <time>2011-01-18T12:32:25Z</time>
      </trkpt>
      <trkpt lat="44.59965" lon="6.21836">
        <ele>1565</ele>
        <time>2011-01-18T12:32:35Z</time>
      </trkpt>
      <trkpt lat="44.59967" lon="6.21821">
        <ele>1565</ele>
        <time>2011-01-18T12:32:45Z</time>
      </trkpt>
      <trkpt lat="44.59971" lon="6.21805">
        <ele>1565</ele>
        <time>2011-01-18T12:32:55Z</time>
      </trkpt>
      <trkpt lat="44.59973" lon="6.2179">
        <ele>1565</ele>
        <time>2011-01-18T12:33:05Z</time>
      </trkpt>
      <trkpt lat="44.59975" lon="6.21776">
        <ele>1565</ele>
        <time>2011-01-18T12:33:15Z</time>
      </trkpt>
      <trkpt lat="44.59976" lon="6.21761">
        <ele>1565</ele>
        <time>2011-01-18T12:33:25Z</time>
      </trkpt>
      <trkpt lat="44.59977" lon="6.21752">
        <ele>1565</ele>
        <time>2011-01-18T12:33:36Z</time>
      </trkpt>
      <trkpt lat="44.59974" lon="6.21738">
        <ele>1565</ele>
        <time>2011-01-18T12:33:47Z</time>
      </trkpt>
      <trkpt lat="44.5997" lon="6.21723">
        <ele>1565</ele>
        <time>2011-01-18T12:33:58Z</time>
      </trkpt>
      <trkpt lat="44.59963" lon="6.21712">
        <ele>1566</ele>
        <time>2011-01-18T12:34:08Z</time>
      </trkpt>
      <trkpt lat="44.59956" lon="6.21699">
        <ele>1566</ele>
        <time>2011-01-18T12:34:19Z</time>
      </trkpt>
      <trkpt lat="44.59946" lon="6.2169">
        <ele>1566</ele>
        <time>2011-01-18T12:34:29Z</time>
      </trkpt>
      <trkpt lat="44.59935" lon="6.21695">
        <ele>1566</ele>
        <time>2011-01-18T12:34:40Z</time>
      </trkpt>
      <trkpt lat="44.59925" lon="6.21707">
        <ele>1566</ele>
        <time>2011-01-18T12:34:51Z</time>
      </trkpt>
      <trkpt lat="44.59914" lon="6.21715">
        <ele>1566</ele>
        <time>2011-01-18T12:35:02Z</time>
      </trkpt>
      <trkpt lat="44.59903" lon="6.21714">
        <ele>1566</ele>
        <time>2011-01-18T12:35:12Z</time>
      </trkpt>
      <trkpt lat="44.59892" lon="6.21711">
        <ele>1566</ele>
        <time>2011-01-18T12:35:22Z</time>
      </trkpt>
      <trkpt lat="44.59882" lon="6.21714">
        <ele>1566</ele>
        <time>2011-01-18T12:35:33Z</time>
      </trkpt>
      <trkpt lat="44.59871" lon="6.21719">
        <ele>1566</ele>
        <time>2011-01-18T12:35:43Z</time>
      </trkpt>
      <trkpt lat="44.59862" lon="6.21721">
        <ele>1566</ele>
        <time>2011-01-18T12:35:54Z</time>
      </trkpt>
      <trkpt lat="44.59851" lon="6.21722">
        <ele>1566</ele>
        <time>2011-01-18T12:36:04Z</time>
      </trkpt>
      <trkpt lat="44.59838" lon="6.21724">
        <ele>1566</ele>
        <time>2011-01-18T12:36:15Z</time>
      </trkpt>
      <trkpt lat="44.59826" lon="6.21724">
        <ele>1566</ele>
        <time>2011-01-18T12:36:26Z</time>
      </trkpt>
      <trkpt lat="44.59815" lon="6.21725">
        <ele>1566</ele>
        <time>2011-01-18T12:36:36Z</time>
      </trkpt>
      <trkpt lat="44.59804" lon="6.21724">
        <ele>1566</ele>
        <time>2011-01-18T12:36:46Z</time>
      </trkpt>
      <trkpt lat="44.59793" lon="6.21719">
        <ele>1566</ele>
        <time>2011-01-18T12:36:56Z</time>
      </trkpt>
      <trkpt lat="44.59784" lon="6.21712">
        <ele>1566</ele>
        <time>2011-01-18T12:37:06Z</time>
      </trkpt>
      <trkpt lat="44.59774" lon="6.21713">
        <ele>1566</ele>
        <time>2011-01-18T12:37:16Z</time>
      </trkpt>
      <trkpt lat="44.59768" lon="6.21721">
        <ele>1566</ele>
        <time>2011-01-18T12:37:26Z</time>
      </trkpt>
      <trkpt lat="44.59759" lon="6.2173">
        <ele>1566</ele>
        <time>2011-01-18T12:37:36Z</time>
      </trkpt>
      <trkpt lat="44.59748" lon="6.21738">
        <ele>1566</ele>
        <time>2011-01-18T12:37:46Z</time>
      </trkpt>
      <trkpt lat="44.59736" lon="6.21743">
        <ele>1566</ele>
        <time>2011-01-18T12:37:56Z</time>
      </trkpt>
      <trkpt lat="44.59725" lon="6.21748">
        <ele>1566</ele>
        <time>2011-01-18T12:38:06Z</time>
      </trkpt>
      <trkpt lat="44.59714" lon="6.21751">
        <ele>1566</ele>
        <time>2011-01-18T12:38:16Z</time>
      </trkpt>
      <trkpt lat="44.59702" lon="6.21755">
        <ele>1566</ele>
        <time>2011-01-18T12:38:26Z</time>
      </trkpt>
      <trkpt lat="44.5969" lon="6.21757">
        <ele>1566</ele>
        <time>2011-01-18T12:38:36Z</time>
      </trkpt>
      <trkpt lat="44.59679" lon="6.21757">
        <ele>1566</ele>
        <time>2011-01-18T12:38:46Z</time>
      </trkpt>
      <trkpt lat="44.59666" lon="6.21756">
        <ele>1566</ele>
        <time>2011-01-18T12:38:57Z</time>
      </trkpt>
      <trkpt lat="44.59655" lon="6.21756">
        <ele>1566</ele>
        <time>2011-01-18T12:39:08Z</time>
      </trkpt>
      <trkpt lat="44.59642" lon="6.21756">
        <ele>1566</ele>
        <time>2011-01-18T12:39:19Z</time>
      </trkpt>
      <trkpt lat="44.59632" lon="6.21755">
        <ele>1566</ele>
        <time>2011-01-18T12:39:29Z</time>
      </trkpt>
      <trkpt lat="44.59621" lon="6.21754">
        <ele>1566</ele>
        <time>2011-01-18T12:39:39Z</time>
      </trkpt>
      <trkpt lat="44.59609" lon="6.21753">
        <ele>1566</ele>
        <time>2011-01-18T12:39:50Z</time>
      </trkpt>
      <trkpt lat="44.59597" lon="6.21753">
        <ele>1566</ele>
        <time>2011-01-18T12:40:00Z</time>
      </trkpt>
      <trkpt lat="44.59586" lon="6.21751">
        <ele>1566</ele>
        <time>2011-01-18T12:40:11Z</time>
      </trkpt>
      <trkpt lat="44.59575" lon="6.2175">
        <ele>1566</ele>
        <time>2011-01-18T12:40:21Z</time>
      </trkpt>
      <trkpt lat="44.59563" lon="6.21746">
        <ele>1566</ele>
        <time>2011-01-18T12:40:31Z</time>
      </trkpt>
      <trkpt lat="44.59552" lon="6.21745">
        <ele>1566</ele>
        <time>2011-01-18T12:40:41Z</time>
      </trkpt>
      <trkpt lat="44.5954" lon="6.21742">
        <ele>1566</ele>
        <time>2011-01-18T12:40:51Z</time>
      </trkpt>
      <trkpt lat="44.59528" lon="6.21739">
        <ele>1566</ele>
        <time>2011-01-18T12:41:01Z</time>
      </trkpt>
      <trkpt lat="44.59517" lon="6.21736">
        <ele>1566</ele>
        <time>2011-01-18T12:41:11Z</time>
      </trkpt>
      <trkpt lat="44.59506" lon="6.21733">
        <ele>1566</ele>
        <time>2011-01-18T12:41:21Z</time>
      </trkpt>
      <trkpt lat="44.59494" lon="6.21728">
        <ele>1566</ele>
        <time>2011-01-18T12:41:31Z</time>
      </trkpt>
      <trkpt lat="44.59483" lon="6.21725">
        <ele>1566</ele>
        <time>2011-01-18T12:41:41Z</time>
      </trkpt>
      <trkpt lat="44.59471" lon="6.21722">
        <ele>1566</ele>
        <time>2011-01-18T12:41:51Z</time>
      </trkpt>
      <trkpt lat="44.59459" lon="6.21718">
        <ele>1566</ele>
        <time>2011-01-18T12:42:01Z</time>
      </trkpt>
      <trkpt lat="44.59447" lon="6.21714">
        <ele>1566</ele>
        <time>2011-01-18T12:42:11Z</time>
      </trkpt>
      <trkpt lat="44.59435" lon="6.21708">
        <ele>1566</ele>
        <time>2011-01-18T12:42:22Z</time>
      </trkpt>
      <trkpt lat="44.59423" lon="6.21701">
        <ele>1566</ele>
        <time>2011-01-18T12:42:33Z</time>
      </trkpt>
      <trkpt lat="44.59411" lon="6.21693">
        <ele>1566</ele>
        <time>2011-01-18T12:42:43Z</time>
      </trkpt>
      <trkpt lat="44.59399" lon="6.21686">
        <ele>1564</ele>
        <time>2011-01-18T12:42:53Z</time>
      </trkpt>
      <trkpt lat="44.59389" lon="6.21675">
        <ele>1563</ele>
        <time>2011-01-18T12:43:03Z</time>
      </trkpt>
      <trkpt lat="44.59381" lon="6.21663">
        <ele>1561</ele>
        <time>2011-01-18T12:43:13Z</time>
      </trkpt>
      <trkpt lat="44.59372" lon="6.21655">
        <ele>1560</ele>
        <time>2011-01-18T12:43:23Z</time>
      </trkpt>
      <trkpt lat="44.59361" lon="6.21648">
        <ele>1559</ele>
        <time>2011-01-18T12:43:34Z</time>
      </trkpt>
      <trkpt lat="44.59348" lon="6.21644">
        <ele>1558</ele>
        <time>2011-01-18T12:43:44Z</time>
      </trkpt>
      <trkpt lat="44.59336" lon="6.2164">
        <ele>1558</ele>
        <time>2011-01-18T12:43:54Z</time>
      </trkpt>
      <trkpt lat="44.59324" lon="6.21636">
        <ele>1558</ele>
        <time>2011-01-18T12:44:04Z</time>
      </trkpt>
      <trkpt lat="44.59311" lon="6.21632">
        <ele>1558</ele>
        <time>2011-01-18T12:44:14Z</time>
      </trkpt>
      <trkpt lat="44.59301" lon="6.21624">
        <ele>1558</ele>
        <time>2011-01-18T12:44:24Z</time>
      </trkpt>
      <trkpt lat="44.59292" lon="6.21609">
        <ele>1558</ele>
        <time>2011-01-18T12:44:34Z</time>
      </trkpt>
      <trkpt lat="44.59286" lon="6.21593">
        <ele>1558</ele>
        <time>2011-01-18T12:44:44Z</time>
      </trkpt>
      <trkpt lat="44.5928" lon="6.21579">
        <ele>1558</ele>
        <time>2011-01-18T12:44:55Z</time>
      </trkpt>
      <trkpt lat="44.59272" lon="6.21564">
        <ele>1558</ele>
        <time>2011-01-18T12:45:05Z</time>
      </trkpt>
      <trkpt lat="44.59268" lon="6.21548">
        <ele>1558</ele>
        <time>2011-01-18T12:45:15Z</time>
      </trkpt>
      <trkpt lat="44.59265" lon="6.21533">
        <ele>1558</ele>
        <time>2011-01-18T12:45:25Z</time>
      </trkpt>
      <trkpt lat="44.5926" lon="6.21516">
        <ele>1558</ele>
        <time>2011-01-18T12:45:35Z</time>
      </trkpt>
      <trkpt lat="44.59255" lon="6.21498">
        <ele>1558</ele>
        <time>2011-01-18T12:45:46Z</time>
      </trkpt>
      <trkpt lat="44.59253" lon="6.21481">
        <ele>1558</ele>
        <time>2011-01-18T12:45:57Z</time>
      </trkpt>
      <trkpt lat="44.59249" lon="6.21465">
        <ele>1558</ele>
        <time>2011-01-18T12:46:08Z</time>
      </trkpt>
      <trkpt lat="44.59245" lon="6.21449">
        <ele>1558</ele>
        <time>2011-01-18T12:46:19Z</time>
      </trkpt>
      <trkpt lat="44.59241" lon="6.21434">
        <ele>1558</ele>
        <time>2011-01-18T12:46:29Z</time>
      </trkpt>
      <trkpt lat="44.59241" lon="6.21418">
        <ele>1559</ele>
        <time>2011-01-18T12:46:40Z</time>
      </trkpt>
      <trkpt lat="44.59245" lon="6.21404">
        <ele>1561</ele>
        <time>2011-01-18T12:46:51Z</time>
      </trkpt>
      <trkpt lat="44.59245" lon="6.21403">
        <ele>1561</ele>
        <time>2011-01-18T12:47:01Z</time>
      </trkpt>
      <trkpt lat="44.59246" lon="6.21402">
        <ele>1564</ele>
        <time>2011-01-18T12:47:30Z</time>
      </trkpt>
      <trkpt lat="44.59247" lon="6.21399">
        <ele>1564</ele>
        <time>2011-01-18T12:47:40Z</time>
      </trkpt>
      <trkpt lat="44.59247" lon="6.21401">
        <ele>1566</ele>
        <time>2011-01-18T12:48:04Z</time>
      </trkpt>
      <trkpt lat="44.59249" lon="6.21404">
        <ele>1566</ele>
        <time>2011-01-18T12:48:18Z</time>
      </trkpt>
      <trkpt lat="44.59248" lon="6.21404">
        <ele>1566</ele>
        <time>2011-01-18T12:48:44Z</time>
      </trkpt>
      <trkpt lat="44.59248" lon="6.21402">
        <ele>1566</ele>
        <time>2011-01-18T12:49:00Z</time>
      </trkpt>
      <trkpt lat="44.5925" lon="6.21406">
        <ele>1566</ele>
        <time>2011-01-18T12:49:12Z</time>
      </trkpt>
      <trkpt lat="44.59248" lon="6.21401">
        <ele>1564</ele>
        <time>2011-01-18T12:49:26Z</time>
      </trkpt>
      <trkpt lat="44.59247" lon="6.21401">
        <ele>1564</ele>
        <time>2011-01-18T12:49:37Z</time>
      </trkpt>
      <trkpt lat="44.59247" lon="6.21404">
        <ele>1564</ele>
        <time>2011-01-18T12:49:49Z</time>
      </trkpt>
      <trkpt lat="44.59248" lon="6.21405">
        <ele>1565</ele>
        <time>2011-01-18T12:50:15Z</time>
      </trkpt>
      <trkpt lat="44.59247" lon="6.21402">
        <ele>1564</ele>
        <time>2011-01-18T12:50:29Z</time>
      </trkpt>
      <trkpt lat="44.59247" lon="6.214">
        <ele>1564</ele>
        <time>2011-01-18T12:50:48Z</time>
      </trkpt>
      <trkpt lat="44.59248" lon="6.21401">
        <ele>1564</ele>
        <time>2011-01-18T12:51:11Z</time>
      </trkpt>
      <trkpt lat="44.59248" lon="6.21399">
        <ele>1564</ele>
        <time>2011-01-18T12:51:39Z</time>
      </trkpt>
      <trkpt lat="44.59252" lon="6.2139">
        <ele>1565</ele>
        <time>2011-01-18T12:51:49Z</time>
      </trkpt>
      <trkpt lat="44.59261" lon="6.21377">
        <ele>1565</ele>
        <time>2011-01-18T12:52:01Z</time>
      </trkpt>
      <trkpt lat="44.59267" lon="6.21363">
        <ele>1565</ele>
        <time>2011-01-18T12:52:13Z</time>
      </trkpt>
      <trkpt lat="44.59265" lon="6.2135">
        <ele>1565</ele>
        <time>2011-01-18T12:52:24Z</time>
      </trkpt>
      <trkpt lat="44.59258" lon="6.21337">
        <ele>1565</ele>
        <time>2011-01-18T12:52:35Z</time>
      </trkpt>
      <trkpt lat="44.59251" lon="6.21321">
        <ele>1565</ele>
        <time>2011-01-18T12:52:45Z</time>
      </trkpt>
      <trkpt lat="44.59247" lon="6.21305">
        <ele>1565</ele>
        <time>2011-01-18T12:52:55Z</time>
      </trkpt>
      <trkpt lat="44.59248" lon="6.21288">
        <ele>1565</ele>
        <time>2011-01-18T12:53:06Z</time>
      </trkpt>
      <trkpt lat="44.5925" lon="6.21276">
        <ele>1565</ele>
        <time>2011-01-18T12:53:16Z</time>
      </trkpt>
      <trkpt lat="44.59256" lon="6.2126">
        <ele>1565</ele>
        <time>2011-01-18T12:53:28Z</time>
      </trkpt>
      <trkpt lat="44.59262" lon="6.21246">
        <ele>1565</ele>
        <time>2011-01-18T12:53:39Z</time>
      </trkpt>
      <trkpt lat="44.59272" lon="6.21234">
        <ele>1565</ele>
        <time>2011-01-18T12:53:51Z</time>
      </trkpt>
      <trkpt lat="44.59283" lon="6.21226">
        <ele>1563</ele>
        <time>2011-01-18T12:54:02Z</time>
      </trkpt>
      <trkpt lat="44.59294" lon="6.21219">
        <ele>1562</ele>
        <time>2011-01-18T12:54:14Z</time>
      </trkpt>
      <trkpt lat="44.59305" lon="6.21214">
        <ele>1562</ele>
        <time>2011-01-18T12:54:24Z</time>
      </trkpt>
      <trkpt lat="44.59316" lon="6.21213">
        <ele>1562</ele>
        <time>2011-01-18T12:54:34Z</time>
      </trkpt>
      <trkpt lat="44.59331" lon="6.21209">
        <ele>1560</ele>
        <time>2011-01-18T12:54:47Z</time>
      </trkpt>
      <trkpt lat="44.5934" lon="6.21208">
        <ele>1560</ele>
        <time>2011-01-18T12:54:59Z</time>
      </trkpt>
      <trkpt lat="44.59352" lon="6.2121">
        <ele>1560</ele>
        <time>2011-01-18T12:55:11Z</time>
      </trkpt>
      <trkpt lat="44.59363" lon="6.21214">
        <ele>1560</ele>
        <time>2011-01-18T12:55:22Z</time>
      </trkpt>
      <trkpt lat="44.59365" lon="6.21215">
        <ele>1559</ele>
        <time>2011-01-18T12:55:53Z</time>
      </trkpt>
      <trkpt lat="44.59366" lon="6.21216">
        <ele>1559</ele>
        <time>2011-01-18T12:56:06Z</time>
      </trkpt>
      <trkpt lat="44.59365" lon="6.21213">
        <ele>1559</ele>
        <time>2011-01-18T12:56:20Z</time>
      </trkpt>
      <trkpt lat="44.59364" lon="6.21212">
        <ele>1559</ele>
        <time>2011-01-18T12:56:34Z</time>
      </trkpt>
      <trkpt lat="44.59363" lon="6.21214">
        <ele>1559</ele>
        <time>2011-01-18T12:56:48Z</time>
      </trkpt>
      <trkpt lat="44.59362" lon="6.21216">
        <ele>1559</ele>
        <time>2011-01-18T12:56:58Z</time>
      </trkpt>
      <trkpt lat="44.59363" lon="6.21216">
        <ele>1559</ele>
        <time>2011-01-18T12:57:17Z</time>
      </trkpt>
      <trkpt lat="44.59362" lon="6.21214">
        <ele>1559</ele>
        <time>2011-01-18T12:57:33Z</time>
      </trkpt>
      <trkpt lat="44.59362" lon="6.21212">
        <ele>1560</ele>
        <time>2011-01-18T12:57:45Z</time>
      </trkpt>
      <trkpt lat="44.59364" lon="6.21212">
        <ele>1560</ele>
        <time>2011-01-18T12:58:01Z</time>
      </trkpt>
      <trkpt lat="44.59364" lon="6.21211">
        <ele>1560</ele>
        <time>2011-01-18T12:58:18Z</time>
      </trkpt>
      <trkpt lat="44.59362" lon="6.21209">
        <ele>1560</ele>
        <time>2011-01-18T12:58:32Z</time>
      </trkpt>
      <trkpt lat="44.59371" lon="6.21209">
        <ele>1560</ele>
        <time>2011-01-18T12:58:42Z</time>
      </trkpt>
      <trkpt lat="44.59381" lon="6.2121">
        <ele>1560</ele>
        <time>2011-01-18T12:58:52Z</time>
      </trkpt>
      <trkpt lat="44.5939" lon="6.21209">
        <ele>1560</ele>
        <time>2011-01-18T12:59:04Z</time>
      </trkpt>
      <trkpt lat="44.594" lon="6.21209">
        <ele>1559</ele>
        <time>2011-01-18T12:59:14Z</time>
      </trkpt>
      <trkpt lat="44.5941" lon="6.21208">
        <ele>1559</ele>
        <time>2011-01-18T12:59:24Z</time>
      </trkpt>
      <trkpt lat="44.5942" lon="6.21207">
        <ele>1557</ele>
        <time>2011-01-18T12:59:35Z</time>
      </trkpt>
      <trkpt lat="44.5943" lon="6.21203">
        <ele>1557</ele>
        <time>2011-01-18T12:59:45Z</time>
      </trkpt>
      <trkpt lat="44.59439" lon="6.21198">
        <ele>1557</ele>
        <time>2011-01-18T12:59:55Z</time>
      </trkpt>
      <trkpt lat="44.59451" lon="6.21191">
        <ele>1556</ele>
        <time>2011-01-18T13:00:06Z</time>
      </trkpt>
      <trkpt lat="44.59461" lon="6.21184">
        <ele>1556</ele>
        <time>2011-01-18T13:00:16Z</time>
      </trkpt>
      <trkpt lat="44.59471" lon="6.21176">
        <ele>1555</ele>
        <time>2011-01-18T13:00:27Z</time>
      </trkpt>
      <trkpt lat="44.59481" lon="6.21169">
        <ele>1555</ele>
        <time>2011-01-18T13:00:38Z</time>
      </trkpt>
      <trkpt lat="44.59491" lon="6.21162">
        <ele>1554</ele>
        <time>2011-01-18T13:00:48Z</time>
      </trkpt>
      <trkpt lat="44.59502" lon="6.21154">
        <ele>1552</ele>
        <time>2011-01-18T13:00:59Z</time>
      </trkpt>
      <trkpt lat="44.59513" lon="6.21143">
        <ele>1551</ele>
        <time>2011-01-18T13:01:09Z</time>
      </trkpt>
      <trkpt lat="44.59521" lon="6.2113">
        <ele>1550</ele>
        <time>2011-01-18T13:01:19Z</time>
      </trkpt>
      <trkpt lat="44.59531" lon="6.21117">
        <ele>1549</ele>
        <time>2011-01-18T13:01:30Z</time>
      </trkpt>
      <trkpt lat="44.59538" lon="6.21103">
        <ele>1547</ele>
        <time>2011-01-18T13:01:40Z</time>
      </trkpt>
      <trkpt lat="44.59548" lon="6.21092">
        <ele>1545</ele>
        <time>2011-01-18T13:01:51Z</time>
      </trkpt>
      <trkpt lat="44.59557" lon="6.21082">
        <ele>1544</ele>
        <time>2011-01-18T13:02:01Z</time>
      </trkpt>
      <trkpt lat="44.59565" lon="6.21067">
        <ele>1543</ele>
        <time>2011-01-18T13:02:12Z</time>
      </trkpt>
      <trkpt lat="44.5957" lon="6.21056">
        <ele>1543</ele>
        <time>2011-01-18T13:02:22Z</time>
      </trkpt>
      <trkpt lat="44.59576" lon="6.21045">
        <ele>1542</ele>
        <time>2011-01-18T13:02:32Z</time>
      </trkpt>
      <trkpt lat="44.59581" lon="6.21036">
        <ele>1542</ele>
        <time>2011-01-18T13:02:42Z</time>
      </trkpt>
      <trkpt lat="44.59593" lon="6.21034">
        <ele>1542</ele>
        <time>2011-01-18T13:02:53Z</time>
      </trkpt>
      <trkpt lat="44.59595" lon="6.21034">
        <ele>1542</ele>
        <time>2011-01-18T13:03:06Z</time>
      </trkpt>
      <trkpt lat="44.59601" lon="6.21034">
        <ele>1542</ele>
        <time>2011-01-18T13:03:17Z</time>
      </trkpt>
      <trkpt lat="44.59613" lon="6.21033">
        <ele>1541</ele>
        <time>2011-01-18T13:03:27Z</time>
      </trkpt>
      <trkpt lat="44.59624" lon="6.21029">
        <ele>1539</ele>
        <time>2011-01-18T13:03:37Z</time>
      </trkpt>
      <trkpt lat="44.59634" lon="6.2102">
        <ele>1537</ele>
        <time>2011-01-18T13:03:47Z</time>
      </trkpt>
      <trkpt lat="44.59641" lon="6.21009">
        <ele>1536</ele>
        <time>2011-01-18T13:03:57Z</time>
      </trkpt>
      <trkpt lat="44.59647" lon="6.20992">
        <ele>1535</ele>
        <time>2011-01-18T13:04:08Z</time>
      </trkpt>
      <trkpt lat="44.59652" lon="6.20977">
        <ele>1534</ele>
        <time>2011-01-18T13:04:19Z</time>
      </trkpt>
      <trkpt lat="44.59652" lon="6.20961">
        <ele>1533</ele>
        <time>2011-01-18T13:04:29Z</time>
      </trkpt>
      <trkpt lat="44.59651" lon="6.20944">
        <ele>1532</ele>
        <time>2011-01-18T13:04:39Z</time>
      </trkpt>
      <trkpt lat="44.59654" lon="6.20929">
        <ele>1531</ele>
        <time>2011-01-18T13:04:49Z</time>
      </trkpt>
      <trkpt lat="44.59662" lon="6.20914">
        <ele>1530</ele>
        <time>2011-01-18T13:05:00Z</time>
      </trkpt>
      <trkpt lat="44.59665" lon="6.209">
        <ele>1529</ele>
        <time>2011-01-18T13:05:11Z</time>
      </trkpt>
      <trkpt lat="44.59661" lon="6.20889">
        <ele>1529</ele>
        <time>2011-01-18T13:05:23Z</time>
      </trkpt>
      <trkpt lat="44.59652" lon="6.2088">
        <ele>1529</ele>
        <time>2011-01-18T13:05:33Z</time>
      </trkpt>
      <trkpt lat="44.59647" lon="6.20862">
        <ele>1527</ele>
        <time>2011-01-18T13:05:44Z</time>
      </trkpt>
      <trkpt lat="44.5965" lon="6.20847">
        <ele>1526</ele>
        <time>2011-01-18T13:05:54Z</time>
      </trkpt>
      <trkpt lat="44.59652" lon="6.20832">
        <ele>1525</ele>
        <time>2011-01-18T13:06:05Z</time>
      </trkpt>
      <trkpt lat="44.59658" lon="6.20825">
        <ele>1525</ele>
        <time>2011-01-18T13:06:16Z</time>
      </trkpt>
      <trkpt lat="44.59665" lon="6.20829">
        <ele>1525</ele>
        <time>2011-01-18T13:06:26Z</time>
      </trkpt>
      <trkpt lat="44.59671" lon="6.20832">
        <ele>1525</ele>
        <time>2011-01-18T13:06:37Z</time>
      </trkpt>
      <trkpt lat="44.59678" lon="6.20838">
        <ele>1525</ele>
        <time>2011-01-18T13:06:47Z</time>
      </trkpt>
      <trkpt lat="44.59687" lon="6.2084">
        <ele>1525</ele>
        <time>2011-01-18T13:06:57Z</time>
      </trkpt>
      <trkpt lat="44.59694" lon="6.20844">
        <ele>1525</ele>
        <time>2011-01-18T13:07:08Z</time>
      </trkpt>
      <trkpt lat="44.59696" lon="6.20846">
        <ele>1525</ele>
        <time>2011-01-18T13:07:21Z</time>
      </trkpt>
      <trkpt lat="44.597" lon="6.20855">
        <ele>1525</ele>
        <time>2011-01-18T13:07:32Z</time>
      </trkpt>
      <trkpt lat="44.59706" lon="6.20861">
        <ele>1526</ele>
        <time>2011-01-18T13:07:42Z</time>
      </trkpt>
      <trkpt lat="44.59713" lon="6.20865">
        <ele>1528</ele>
        <time>2011-01-18T13:07:52Z</time>
      </trkpt>
      <trkpt lat="44.5972" lon="6.20869">
        <ele>1529</ele>
        <time>2011-01-18T13:08:02Z</time>
      </trkpt>
      <trkpt lat="44.59721" lon="6.20871">
        <ele>1530</ele>
        <time>2011-01-18T13:08:16Z</time>
      </trkpt>
      <trkpt lat="44.59719" lon="6.20871">
        <ele>1532</ele>
        <time>2011-01-18T13:08:33Z</time>
      </trkpt>
      <trkpt lat="44.59718" lon="6.2087">
        <ele>1534</ele>
        <time>2011-01-18T13:08:43Z</time>
      </trkpt>
      <trkpt lat="44.59717" lon="6.20869">
        <ele>1535</ele>
        <time>2011-01-18T13:08:57Z</time>
      </trkpt>
      <trkpt lat="44.59717" lon="6.20866">
        <ele>1538</ele>
        <time>2011-01-18T13:09:10Z</time>
      </trkpt>
      <trkpt lat="44.59716" lon="6.20866">
        <ele>1542</ele>
        <time>2011-01-18T13:09:23Z</time>
      </trkpt>
      <trkpt lat="44.59721" lon="6.20872">
        <ele>1543</ele>
        <time>2011-01-18T13:09:33Z</time>
      </trkpt>
      <trkpt lat="44.59728" lon="6.20878">
        <ele>1544</ele>
        <time>2011-01-18T13:09:43Z</time>
      </trkpt>
      <trkpt lat="44.59732" lon="6.20888">
        <ele>1544</ele>
        <time>2011-01-18T13:09:53Z</time>
      </trkpt>
      <trkpt lat="44.59736" lon="6.20897">
        <ele>1544</ele>
        <time>2011-01-18T13:10:04Z</time>
      </trkpt>
      <trkpt lat="44.59742" lon="6.20905">
        <ele>1544</ele>
        <time>2011-01-18T13:10:16Z</time>
      </trkpt>
      <trkpt lat="44.59747" lon="6.20912">
        <ele>1545</ele>
        <time>2011-01-18T13:10:26Z</time>
      </trkpt>
      <trkpt lat="44.5975" lon="6.20918">
        <ele>1546</ele>
        <time>2011-01-18T13:10:37Z</time>
      </trkpt>
      <trkpt lat="44.59754" lon="6.20923">
        <ele>1547</ele>
        <time>2011-01-18T13:10:49Z</time>
      </trkpt>
      <trkpt lat="44.59759" lon="6.20929">
        <ele>1549</ele>
        <time>2011-01-18T13:11:01Z</time>
      </trkpt>
      <trkpt lat="44.59762" lon="6.20933">
        <ele>1550</ele>
        <time>2011-01-18T13:11:13Z</time>
      </trkpt>
      <trkpt lat="44.59765" lon="6.20938">
        <ele>1552</ele>
        <time>2011-01-18T13:11:26Z</time>
      </trkpt>
      <trkpt lat="44.59767" lon="6.20943">
        <ele>1552</ele>
        <time>2011-01-18T13:11:40Z</time>
      </trkpt>
      <trkpt lat="44.59767" lon="6.20948">
        <ele>1552</ele>
        <time>2011-01-18T13:11:50Z</time>
      </trkpt>
      <trkpt lat="44.59771" lon="6.20952">
        <ele>1553</ele>
        <time>2011-01-18T13:12:00Z</time>
      </trkpt>
      <trkpt lat="44.59771" lon="6.20958">
        <ele>1554</ele>
        <time>2011-01-18T13:12:10Z</time>
      </trkpt>
      <trkpt lat="44.59774" lon="6.20961">
        <ele>1555</ele>
        <time>2011-01-18T13:12:21Z</time>
      </trkpt>
      <trkpt lat="44.59778" lon="6.20965">
        <ele>1556</ele>
        <time>2011-01-18T13:12:33Z</time>
      </trkpt>
      <trkpt lat="44.59783" lon="6.20968">
        <ele>1557</ele>
        <time>2011-01-18T13:12:43Z</time>
      </trkpt>
      <trkpt lat="44.59788" lon="6.20968">
        <ele>1560</ele>
        <time>2011-01-18T13:12:54Z</time>
      </trkpt>
      <trkpt lat="44.59795" lon="6.20969">
        <ele>1563</ele>
        <time>2011-01-18T13:13:05Z</time>
      </trkpt>
      <trkpt lat="44.598" lon="6.20973">
        <ele>1565</ele>
        <time>2011-01-18T13:13:15Z</time>
      </trkpt>
      <trkpt lat="44.59805" lon="6.20977">
        <ele>1567</ele>
        <time>2011-01-18T13:13:28Z</time>
      </trkpt>
      <trkpt lat="44.59811" lon="6.20973">
        <ele>1568</ele>
        <time>2011-01-18T13:13:39Z</time>
      </trkpt>
      <trkpt lat="44.59816" lon="6.2097">
        <ele>1571</ele>
        <time>2011-01-18T13:13:49Z</time>
      </trkpt>
      <trkpt lat="44.59821" lon="6.20964">
        <ele>1572</ele>
        <time>2011-01-18T13:13:59Z</time>
      </trkpt>
      <trkpt lat="44.59827" lon="6.20956">
        <ele>1573</ele>
        <time>2011-01-18T13:14:09Z</time>
      </trkpt>
      <trkpt lat="44.59835" lon="6.20949">
        <ele>1574</ele>
        <time>2011-01-18T13:14:19Z</time>
      </trkpt>
      <trkpt lat="44.59842" lon="6.20943">
        <ele>1575</ele>
        <time>2011-01-18T13:14:29Z</time>
      </trkpt>
      <trkpt lat="44.5985" lon="6.20938">
        <ele>1576</ele>
        <time>2011-01-18T13:14:39Z</time>
      </trkpt>
      <trkpt lat="44.5986" lon="6.20927">
        <ele>1576</ele>
        <time>2011-01-18T13:14:50Z</time>
      </trkpt>
      <trkpt lat="44.59868" lon="6.20916">
        <ele>1576</ele>
        <time>2011-01-18T13:15:00Z</time>
      </trkpt>
      <trkpt lat="44.59877" lon="6.20906">
        <ele>1576</ele>
        <time>2011-01-18T13:15:10Z</time>
      </trkpt>
      <trkpt lat="44.59888" lon="6.20896">
        <ele>1576</ele>
        <time>2011-01-18T13:15:20Z</time>
      </trkpt>
      <trkpt lat="44.59899" lon="6.20892">
        <ele>1576</ele>
        <time>2011-01-18T13:15:31Z</time>
      </trkpt>
      <trkpt lat="44.59911" lon="6.20889">
        <ele>1576</ele>
        <time>2011-01-18T13:15:42Z</time>
      </trkpt>
      <trkpt lat="44.59919" lon="6.20889">
        <ele>1576</ele>
        <time>2011-01-18T13:15:52Z</time>
      </trkpt>
      <trkpt lat="44.59929" lon="6.20889">
        <ele>1576</ele>
        <time>2011-01-18T13:16:02Z</time>
      </trkpt>
      <trkpt lat="44.59938" lon="6.20879">
        <ele>1576</ele>
        <time>2011-01-18T13:16:13Z</time>
      </trkpt>
      <trkpt lat="44.59946" lon="6.20867">
        <ele>1576</ele>
        <time>2011-01-18T13:16:23Z</time>
      </trkpt>
      <trkpt lat="44.5995" lon="6.20854">
        <ele>1576</ele>
        <time>2011-01-18T13:16:34Z</time>
      </trkpt>
      <trkpt lat="44.59951" lon="6.20853">
        <ele>1576</ele>
        <time>2011-01-18T13:16:48Z</time>
      </trkpt>
      <trkpt lat="44.59953" lon="6.20855">
        <ele>1576</ele>
        <time>2011-01-18T13:17:22Z</time>
      </trkpt>
      <trkpt lat="44.59951" lon="6.20852">
        <ele>1576</ele>
        <time>2011-01-18T13:17:33Z</time>
      </trkpt>
      <trkpt lat="44.5995" lon="6.20851">
        <ele>1577</ele>
        <time>2011-01-18T13:17:55Z</time>
      </trkpt>
      <trkpt lat="44.5995" lon="6.20849">
        <ele>1580</ele>
        <time>2011-01-18T13:18:24Z</time>
      </trkpt>
      <trkpt lat="44.59952" lon="6.20838">
        <ele>1580</ele>
        <time>2011-01-18T13:18:35Z</time>
      </trkpt>
      <trkpt lat="44.59954" lon="6.20827">
        <ele>1580</ele>
        <time>2011-01-18T13:18:45Z</time>
      </trkpt>
      <trkpt lat="44.59951" lon="6.20811">
        <ele>1580</ele>
        <time>2011-01-18T13:18:56Z</time>
      </trkpt>
      <trkpt lat="44.59956" lon="6.20798">
        <ele>1580</ele>
        <time>2011-01-18T13:19:07Z</time>
      </trkpt>
      <trkpt lat="44.5996" lon="6.20787">
        <ele>1580</ele>
        <time>2011-01-18T13:19:17Z</time>
      </trkpt>
      <trkpt lat="44.59963" lon="6.20775">
        <ele>1580</ele>
        <time>2011-01-18T13:19:27Z</time>
      </trkpt>
      <trkpt lat="44.59966" lon="6.20761">
        <ele>1580</ele>
        <time>2011-01-18T13:19:38Z</time>
      </trkpt>
      <trkpt lat="44.59969" lon="6.20748">
        <ele>1580</ele>
        <time>2011-01-18T13:19:48Z</time>
      </trkpt>
      <trkpt lat="44.59974" lon="6.20739">
        <ele>1580</ele>
        <time>2011-01-18T13:19:58Z</time>
      </trkpt>
      <trkpt lat="44.5998" lon="6.20729">
        <ele>1580</ele>
        <time>2011-01-18T13:20:08Z</time>
      </trkpt>
      <trkpt lat="44.59984" lon="6.20717">
        <ele>1581</ele>
        <time>2011-01-18T13:20:18Z</time>
      </trkpt>
      <trkpt lat="44.59989" lon="6.20707">
        <ele>1582</ele>
        <time>2011-01-18T13:20:30Z</time>
      </trkpt>
      <trkpt lat="44.59991" lon="6.20698">
        <ele>1584</ele>
        <time>2011-01-18T13:20:41Z</time>
      </trkpt>
      <trkpt lat="44.59991" lon="6.20688">
        <ele>1584</ele>
        <time>2011-01-18T13:20:51Z</time>
      </trkpt>
      <trkpt lat="44.59994" lon="6.20682">
        <ele>1587</ele>
        <time>2011-01-18T13:21:05Z</time>
      </trkpt>
      <trkpt lat="44.6" lon="6.20675">
        <ele>1588</ele>
        <time>2011-01-18T13:21:15Z</time>
      </trkpt>
      <trkpt lat="44.60001" lon="6.20669">
        <ele>1588</ele>
        <time>2011-01-18T13:21:25Z</time>
      </trkpt>
      <trkpt lat="44.60002" lon="6.20658">
        <ele>1588</ele>
        <time>2011-01-18T13:21:39Z</time>
      </trkpt>
      <trkpt lat="44.60003" lon="6.20652">
        <ele>1590</ele>
        <time>2011-01-18T13:22:07Z</time>
      </trkpt>
      <trkpt lat="44.60003" lon="6.20643">
        <ele>1590</ele>
        <time>2011-01-18T13:22:17Z</time>
      </trkpt>
      <trkpt lat="44.6" lon="6.2063">
        <ele>1590</ele>
        <time>2011-01-18T13:22:28Z</time>
      </trkpt>
      <trkpt lat="44.60002" lon="6.20621">
        <ele>1590</ele>
        <time>2011-01-18T13:22:39Z</time>
      </trkpt>
      <trkpt lat="44.60002" lon="6.20609">
        <ele>1590</ele>
        <time>2011-01-18T13:22:49Z</time>
      </trkpt>
      <trkpt lat="44.60003" lon="6.206">
        <ele>1590</ele>
        <time>2011-01-18T13:23:09Z</time>
      </trkpt>
      <trkpt lat="44.60003" lon="6.20595">
        <ele>1590</ele>
        <time>2011-01-18T13:23:24Z</time>
      </trkpt>
      <trkpt lat="44.6" lon="6.20591">
        <ele>1590</ele>
        <time>2011-01-18T13:23:35Z</time>
      </trkpt>
      <trkpt lat="44.59999" lon="6.2058">
        <ele>1590</ele>
        <time>2011-01-18T13:23:46Z</time>
      </trkpt>
      <trkpt lat="44.60002" lon="6.20572">
        <ele>1590</ele>
        <time>2011-01-18T13:23:56Z</time>
      </trkpt>
      <trkpt lat="44.60006" lon="6.20562">
        <ele>1590</ele>
        <time>2011-01-18T13:24:06Z</time>
      </trkpt>
      <trkpt lat="44.60006" lon="6.20549">
        <ele>1590</ele>
        <time>2011-01-18T13:24:16Z</time>
      </trkpt>
      <trkpt lat="44.60012" lon="6.20537">
        <ele>1590</ele>
        <time>2011-01-18T13:24:27Z</time>
      </trkpt>
      <trkpt lat="44.60016" lon="6.20525">
        <ele>1590</ele>
        <time>2011-01-18T13:24:37Z</time>
      </trkpt>
      <trkpt lat="44.60021" lon="6.20515">
        <ele>1590</ele>
        <time>2011-01-18T13:24:47Z</time>
      </trkpt>
      <trkpt lat="44.60027" lon="6.20506">
        <ele>1589</ele>
        <time>2011-01-18T13:24:57Z</time>
      </trkpt>
      <trkpt lat="44.6003" lon="6.20499">
        <ele>1589</ele>
        <time>2011-01-18T13:25:08Z</time>
      </trkpt>
      <trkpt lat="44.60034" lon="6.20491">
        <ele>1589</ele>
        <time>2011-01-18T13:25:18Z</time>
      </trkpt>
      <trkpt lat="44.60039" lon="6.2048">
        <ele>1589</ele>
        <time>2011-01-18T13:25:29Z</time>
      </trkpt>
      <trkpt lat="44.60043" lon="6.20467">
        <ele>1589</ele>
        <time>2011-01-18T13:25:40Z</time>
      </trkpt>
      <trkpt lat="44.60048" lon="6.20454">
        <ele>1589</ele>
        <time>2011-01-18T13:25:51Z</time>
      </trkpt>
      <trkpt lat="44.60051" lon="6.20447">
        <ele>1589</ele>
        <time>2011-01-18T13:26:01Z</time>
      </trkpt>
      <trkpt lat="44.60054" lon="6.20433">
        <ele>1589</ele>
        <time>2011-01-18T13:26:12Z</time>
      </trkpt>
      <trkpt lat="44.60057" lon="6.20421">
        <ele>1589</ele>
        <time>2011-01-18T13:26:22Z</time>
      </trkpt>
      <trkpt lat="44.60058" lon="6.2041">
        <ele>1591</ele>
        <time>2011-01-18T13:26:32Z</time>
      </trkpt>
      <trkpt lat="44.6006" lon="6.20399">
        <ele>1595</ele>
        <time>2011-01-18T13:26:42Z</time>
      </trkpt>
      <trkpt lat="44.6006" lon="6.20384">
        <ele>1600</ele>
        <time>2011-01-18T13:26:52Z</time>
      </trkpt>
      <trkpt lat="44.6006" lon="6.20369">
        <ele>1603</ele>
        <time>2011-01-18T13:27:03Z</time>
      </trkpt>
      <trkpt lat="44.60063" lon="6.20358">
        <ele>1603</ele>
        <time>2011-01-18T13:27:13Z</time>
      </trkpt>
      <trkpt lat="44.60065" lon="6.20348">
        <ele>1605</ele>
        <time>2011-01-18T13:27:23Z</time>
      </trkpt>
      <trkpt lat="44.60067" lon="6.20339">
        <ele>1609</ele>
        <time>2011-01-18T13:27:41Z</time>
      </trkpt>
      <trkpt lat="44.60067" lon="6.20336">
        <ele>1609</ele>
        <time>2011-01-18T13:27:54Z</time>
      </trkpt>
      <trkpt lat="44.60069" lon="6.20334">
        <ele>1612</ele>
        <time>2011-01-18T13:29:50Z</time>
      </trkpt>
      <trkpt lat="44.60069" lon="6.20335">
        <ele>1612</ele>
        <time>2011-01-18T13:30:11Z</time>
      </trkpt>
      <trkpt lat="44.60067" lon="6.20337">
        <ele>1612</ele>
        <time>2011-01-18T13:30:37Z</time>
      </trkpt>
      <trkpt lat="44.60068" lon="6.20332">
        <ele>1612</ele>
        <time>2011-01-18T13:30:47Z</time>
      </trkpt>
      <trkpt lat="44.6007" lon="6.20327">
        <ele>1612</ele>
        <time>2011-01-18T13:30:57Z</time>
      </trkpt>
      <trkpt lat="44.60076" lon="6.20319">
        <ele>1613</ele>
        <time>2011-01-18T13:31:07Z</time>
      </trkpt>
      <trkpt lat="44.60083" lon="6.20311">
        <ele>1613</ele>
        <time>2011-01-18T13:31:17Z</time>
      </trkpt>
      <trkpt lat="44.60091" lon="6.20303">
        <ele>1615</ele>
        <time>2011-01-18T13:31:27Z</time>
      </trkpt>
      <trkpt lat="44.601" lon="6.203">
        <ele>1615</ele>
        <time>2011-01-18T13:31:37Z</time>
      </trkpt>
      <trkpt lat="44.60107" lon="6.20296">
        <ele>1616</ele>
        <time>2011-01-18T13:31:47Z</time>
      </trkpt>
      <trkpt lat="44.60116" lon="6.20294">
        <ele>1617</ele>
        <time>2011-01-18T13:31:57Z</time>
      </trkpt>
      <trkpt lat="44.60124" lon="6.20295">
        <ele>1619</ele>
        <time>2011-01-18T13:32:07Z</time>
      </trkpt>
      <trkpt lat="44.60131" lon="6.20292">
        <ele>1620</ele>
        <time>2011-01-18T13:32:17Z</time>
      </trkpt>
      <trkpt lat="44.60138" lon="6.20286">
        <ele>1621</ele>
        <time>2011-01-18T13:32:28Z</time>
      </trkpt>
      <trkpt lat="44.60145" lon="6.20282">
        <ele>1623</ele>
        <time>2011-01-18T13:32:38Z</time>
      </trkpt>
      <trkpt lat="44.60154" lon="6.20284">
        <ele>1625</ele>
        <time>2011-01-18T13:32:48Z</time>
      </trkpt>
      <trkpt lat="44.60162" lon="6.20287">
        <ele>1626</ele>
        <time>2011-01-18T13:32:58Z</time>
      </trkpt>
      <trkpt lat="44.60172" lon="6.2029">
        <ele>1627</ele>
        <time>2011-01-18T13:33:09Z</time>
      </trkpt>
      <trkpt lat="44.60177" lon="6.20293">
        <ele>1628</ele>
        <time>2011-01-18T13:33:19Z</time>
      </trkpt>
      <trkpt lat="44.60186" lon="6.20297">
        <ele>1628</ele>
        <time>2011-01-18T13:33:29Z</time>
      </trkpt>
      <trkpt lat="44.60194" lon="6.20301">
        <ele>1628</ele>
        <time>2011-01-18T13:33:39Z</time>
      </trkpt>
      <trkpt lat="44.60202" lon="6.20306">
        <ele>1628</ele>
        <time>2011-01-18T13:33:49Z</time>
      </trkpt>
      <trkpt lat="44.6021" lon="6.20308">
        <ele>1630</ele>
        <time>2011-01-18T13:33:59Z</time>
      </trkpt>
      <trkpt lat="44.60216" lon="6.20312">
        <ele>1632</ele>
        <time>2011-01-18T13:34:10Z</time>
      </trkpt>
      <trkpt lat="44.60221" lon="6.20309">
        <ele>1634</ele>
        <time>2011-01-18T13:34:20Z</time>
      </trkpt>
      <trkpt lat="44.6022" lon="6.20306">
        <ele>1636</ele>
        <time>2011-01-18T13:34:31Z</time>
      </trkpt>
      <trkpt lat="44.60221" lon="6.20297">
        <ele>1637</ele>
        <time>2011-01-18T13:34:41Z</time>
      </trkpt>
      <trkpt lat="44.60224" lon="6.20288">
        <ele>1639</ele>
        <time>2011-01-18T13:34:53Z</time>
      </trkpt>
      <trkpt lat="44.60228" lon="6.20279">
        <ele>1641</ele>
        <time>2011-01-18T13:35:04Z</time>
      </trkpt>
      <trkpt lat="44.60233" lon="6.20271">
        <ele>1644</ele>
        <time>2011-01-18T13:35:15Z</time>
      </trkpt>
      <trkpt lat="44.60239" lon="6.20265">
        <ele>1645</ele>
        <time>2011-01-18T13:35:25Z</time>
      </trkpt>
      <trkpt lat="44.60245" lon="6.20256">
        <ele>1646</ele>
        <time>2011-01-18T13:35:35Z</time>
      </trkpt>
      <trkpt lat="44.60251" lon="6.2025">
        <ele>1648</ele>
        <time>2011-01-18T13:35:45Z</time>
      </trkpt>
      <trkpt lat="44.60257" lon="6.20246">
        <ele>1650</ele>
        <time>2011-01-18T13:35:57Z</time>
      </trkpt>
      <trkpt lat="44.60263" lon="6.20247">
        <ele>1653</ele>
        <time>2011-01-18T13:36:09Z</time>
      </trkpt>
      <trkpt lat="44.60266" lon="6.20246">
        <ele>1654</ele>
        <time>2011-01-18T13:36:21Z</time>
      </trkpt>
      <trkpt lat="44.60267" lon="6.20247">
        <ele>1655</ele>
        <time>2011-01-18T13:36:43Z</time>
      </trkpt>
      <trkpt lat="44.60268" lon="6.20246">
        <ele>1657</ele>
        <time>2011-01-18T13:37:24Z</time>
      </trkpt>
      <trkpt lat="44.60272" lon="6.20242">
        <ele>1657</ele>
        <time>2011-01-18T13:37:34Z</time>
      </trkpt>
      <trkpt lat="44.60276" lon="6.20231">
        <ele>1657</ele>
        <time>2011-01-18T13:37:44Z</time>
      </trkpt>
      <trkpt lat="44.60282" lon="6.20211">
        <ele>1654</ele>
        <time>2011-01-18T13:37:54Z</time>
      </trkpt>
      <trkpt lat="44.60296" lon="6.20214">
        <ele>1652</ele>
        <time>2011-01-18T13:38:05Z</time>
      </trkpt>
      <trkpt lat="44.60302" lon="6.20221">
        <ele>1652</ele>
        <time>2011-01-18T13:38:16Z</time>
      </trkpt>
      <trkpt lat="44.60307" lon="6.20227">
        <ele>1652</ele>
        <time>2011-01-18T13:38:27Z</time>
      </trkpt>
      <trkpt lat="44.60313" lon="6.20235">
        <ele>1652</ele>
        <time>2011-01-18T13:38:40Z</time>
      </trkpt>
      <trkpt lat="44.60319" lon="6.20244">
        <ele>1655</ele>
        <time>2011-01-18T13:38:52Z</time>
      </trkpt>
      <trkpt lat="44.60323" lon="6.20252">
        <ele>1656</ele>
        <time>2011-01-18T13:39:03Z</time>
      </trkpt>
      <trkpt lat="44.60327" lon="6.20261">
        <ele>1659</ele>
        <time>2011-01-18T13:39:14Z</time>
      </trkpt>
      <trkpt lat="44.60333" lon="6.20269">
        <ele>1661</ele>
        <time>2011-01-18T13:39:24Z</time>
      </trkpt>
      <trkpt lat="44.6034" lon="6.20268">
        <ele>1662</ele>
        <time>2011-01-18T13:39:43Z</time>
      </trkpt>
      <trkpt lat="44.60339" lon="6.20266">
        <ele>1662</ele>
        <time>2011-01-18T13:40:02Z</time>
      </trkpt>
      <trkpt lat="44.60342" lon="6.20267">
        <ele>1663</ele>
        <time>2011-01-18T13:40:13Z</time>
      </trkpt>
      <trkpt lat="44.60342" lon="6.20268">
        <ele>1663</ele>
        <time>2011-01-18T13:40:35Z</time>
      </trkpt>
      <trkpt lat="44.60341" lon="6.20266">
        <ele>1663</ele>
        <time>2011-01-18T13:40:48Z</time>
      </trkpt>
      <trkpt lat="44.6034" lon="6.20266">
        <ele>1663</ele>
        <time>2011-01-18T13:41:07Z</time>
      </trkpt>
      <trkpt lat="44.60341" lon="6.20267">
        <ele>1665</ele>
        <time>2011-01-18T13:41:35Z</time>
      </trkpt>
      <trkpt lat="44.6034" lon="6.20267">
        <ele>1665</ele>
        <time>2011-01-18T13:41:56Z</time>
      </trkpt>
      <trkpt lat="44.6034" lon="6.20266">
        <ele>1665</ele>
        <time>2011-01-18T13:42:20Z</time>
      </trkpt>
      <trkpt lat="44.60339" lon="6.20264">
        <ele>1666</ele>
        <time>2011-01-18T13:42:30Z</time>
      </trkpt>
      <trkpt lat="44.60342" lon="6.20264">
        <ele>1667</ele>
        <time>2011-01-18T13:42:56Z</time>
      </trkpt>
      <trkpt lat="44.60342" lon="6.20264">
        <ele>1667</ele>
        <time>2011-01-18T13:43:11Z</time>
      </trkpt>
      <trkpt lat="44.60341" lon="6.20265">
        <ele>1668</ele>
        <time>2011-01-18T13:43:51Z</time>
      </trkpt>
      <trkpt lat="44.60342" lon="6.20263">
        <ele>1668</ele>
        <time>2011-01-18T13:44:03Z</time>
      </trkpt>
      <trkpt lat="44.6035" lon="6.20259">
        <ele>1668</ele>
        <time>2011-01-18T13:44:13Z</time>
      </trkpt>
      <trkpt lat="44.60358" lon="6.20254">
        <ele>1668</ele>
        <time>2011-01-18T13:44:23Z</time>
      </trkpt>
      <trkpt lat="44.60364" lon="6.20246">
        <ele>1665</ele>
        <time>2011-01-18T13:44:34Z</time>
      </trkpt>
      <trkpt lat="44.60366" lon="6.20238">
        <ele>1664</ele>
        <time>2011-01-18T13:44:49Z</time>
      </trkpt>
      <trkpt lat="44.60366" lon="6.20235">
        <ele>1664</ele>
        <time>2011-01-18T13:45:00Z</time>
      </trkpt>
      <trkpt lat="44.60361" lon="6.2023">
        <ele>1664</ele>
        <time>2011-01-18T13:45:12Z</time>
      </trkpt>
      <trkpt lat="44.60358" lon="6.2023">
        <ele>1664</ele>
        <time>2011-01-18T13:45:23Z</time>
      </trkpt>
      <trkpt lat="44.60351" lon="6.20227">
        <ele>1663</ele>
        <time>2011-01-18T13:45:33Z</time>
      </trkpt>
      <trkpt lat="44.60342" lon="6.20223">
        <ele>1663</ele>
        <time>2011-01-18T13:45:43Z</time>
      </trkpt>
      <trkpt lat="44.60332" lon="6.20221">
        <ele>1662</ele>
        <time>2011-01-18T13:45:54Z</time>
      </trkpt>
      <trkpt lat="44.60331" lon="6.20222">
        <ele>1662</ele>
        <time>2011-01-18T13:46:14Z</time>
      </trkpt>
      <trkpt lat="44.60329" lon="6.20222">
        <ele>1662</ele>
        <time>2011-01-18T13:46:29Z</time>
      </trkpt>
      <trkpt lat="44.60319" lon="6.20219">
        <ele>1661</ele>
        <time>2011-01-18T13:46:40Z</time>
      </trkpt>
      <trkpt lat="44.60311" lon="6.20218">
        <ele>1658</ele>
        <time>2011-01-18T13:46:50Z</time>
      </trkpt>
      <trkpt lat="44.60305" lon="6.20213">
        <ele>1655</ele>
        <time>2011-01-18T13:47:00Z</time>
      </trkpt>
      <trkpt lat="44.60299" lon="6.20204">
        <ele>1652</ele>
        <time>2011-01-18T13:47:10Z</time>
      </trkpt>
      <trkpt lat="44.60297" lon="6.20193">
        <ele>1650</ele>
        <time>2011-01-18T13:47:20Z</time>
      </trkpt>
      <trkpt lat="44.60297" lon="6.20182">
        <ele>1648</ele>
        <time>2011-01-18T13:47:30Z</time>
      </trkpt>
      <trkpt lat="44.603" lon="6.20172">
        <ele>1646</ele>
        <time>2011-01-18T13:47:40Z</time>
      </trkpt>
      <trkpt lat="44.60303" lon="6.20163">
        <ele>1643</ele>
        <time>2011-01-18T13:47:52Z</time>
      </trkpt>
      <trkpt lat="44.60308" lon="6.2015">
        <ele>1641</ele>
        <time>2011-01-18T13:48:02Z</time>
      </trkpt>
      <trkpt lat="44.60318" lon="6.20137">
        <ele>1638</ele>
        <time>2011-01-18T13:48:13Z</time>
      </trkpt>
      <trkpt lat="44.60328" lon="6.20129">
        <ele>1636</ele>
        <time>2011-01-18T13:48:23Z</time>
      </trkpt>
      <trkpt lat="44.60339" lon="6.2012">
        <ele>1633</ele>
        <time>2011-01-18T13:48:33Z</time>
      </trkpt>
      <trkpt lat="44.60351" lon="6.20111">
        <ele>1630</ele>
        <time>2011-01-18T13:48:43Z</time>
      </trkpt>
      <trkpt lat="44.60366" lon="6.20101">
        <ele>1626</ele>
        <time>2011-01-18T13:48:53Z</time>
      </trkpt>
      <trkpt lat="44.60383" lon="6.20088">
        <ele>1621</ele>
        <time>2011-01-18T13:49:03Z</time>
      </trkpt>
      <trkpt lat="44.60398" lon="6.20072">
        <ele>1615</ele>
        <time>2011-01-18T13:49:13Z</time>
      </trkpt>
      <trkpt lat="44.60411" lon="6.20064">
        <ele>1613</ele>
        <time>2011-01-18T13:49:23Z</time>
      </trkpt>
      <trkpt lat="44.6042" lon="6.20055">
        <ele>1612</ele>
        <time>2011-01-18T13:49:33Z</time>
      </trkpt>
      <trkpt lat="44.60428" lon="6.20045">
        <ele>1611</ele>
        <time>2011-01-18T13:49:44Z</time>
      </trkpt>
      <trkpt lat="44.60437" lon="6.20036">
        <ele>1611</ele>
        <time>2011-01-18T13:49:54Z</time>
      </trkpt>
      <trkpt lat="44.60445" lon="6.20025">
        <ele>1611</ele>
        <time>2011-01-18T13:50:04Z</time>
      </trkpt>
      <trkpt lat="44.60453" lon="6.20024">
        <ele>1610</ele>
        <time>2011-01-18T13:50:14Z</time>
      </trkpt>
      <trkpt lat="44.60461" lon="6.20024">
        <ele>1609</ele>
        <time>2011-01-18T13:50:38Z</time>
      </trkpt>
      <trkpt lat="44.60461" lon="6.20025">
        <ele>1608</ele>
        <time>2011-01-18T13:50:48Z</time>
      </trkpt>
      <trkpt lat="44.60458" lon="6.20025">
        <ele>1608</ele>
        <time>2011-01-18T13:51:04Z</time>
      </trkpt>
      <trkpt lat="44.60459" lon="6.20026">
        <ele>1608</ele>
        <time>2011-01-18T13:52:06Z</time>
      </trkpt>
      <trkpt lat="44.60458" lon="6.20024">
        <ele>1608</ele>
        <time>2011-01-18T13:52:36Z</time>
      </trkpt>
      <trkpt lat="44.6046" lon="6.20022">
        <ele>1608</ele>
        <time>2011-01-18T13:52:49Z</time>
      </trkpt>
      <trkpt lat="44.6047" lon="6.2002">
        <ele>1608</ele>
        <time>2011-01-18T13:52:59Z</time>
      </trkpt>
      <trkpt lat="44.60477" lon="6.20013">
        <ele>1606</ele>
        <time>2011-01-18T13:53:10Z</time>
      </trkpt>
      <trkpt lat="44.60481" lon="6.20009">
        <ele>1605</ele>
        <time>2011-01-18T13:53:21Z</time>
      </trkpt>
      <trkpt lat="44.60487" lon="6.20004">
        <ele>1602</ele>
        <time>2011-01-18T13:53:32Z</time>
      </trkpt>
      <trkpt lat="44.60499" lon="6.19994">
        <ele>1595</ele>
        <time>2011-01-18T13:53:42Z</time>
      </trkpt>
      <trkpt lat="44.60514" lon="6.19983">
        <ele>1588</ele>
        <time>2011-01-18T13:53:52Z</time>
      </trkpt>
      <trkpt lat="44.60532" lon="6.19969">
        <ele>1582</ele>
        <time>2011-01-18T13:54:02Z</time>
      </trkpt>
      <trkpt lat="44.60543" lon="6.19948">
        <ele>1577</ele>
        <time>2011-01-18T13:54:12Z</time>
      </trkpt>
      <trkpt lat="44.6056" lon="6.19943">
        <ele>1571</ele>
        <time>2011-01-18T13:54:22Z</time>
      </trkpt>
      <trkpt lat="44.60572" lon="6.19942">
        <ele>1568</ele>
        <time>2011-01-18T13:54:32Z</time>
      </trkpt>
      <trkpt lat="44.60584" lon="6.19938">
        <ele>1566</ele>
        <time>2011-01-18T13:54:42Z</time>
      </trkpt>
      <trkpt lat="44.60596" lon="6.19939">
        <ele>1564</ele>
        <time>2011-01-18T13:54:52Z</time>
      </trkpt>
      <trkpt lat="44.60606" lon="6.19938">
        <ele>1560</ele>
        <time>2011-01-18T13:55:03Z</time>
      </trkpt>
      <trkpt lat="44.6062" lon="6.19934">
        <ele>1556</ele>
        <time>2011-01-18T13:55:13Z</time>
      </trkpt>
      <trkpt lat="44.60635" lon="6.19936">
        <ele>1552</ele>
        <time>2011-01-18T13:55:23Z</time>
      </trkpt>
      <trkpt lat="44.60645" lon="6.19926">
        <ele>1550</ele>
        <time>2011-01-18T13:55:33Z</time>
      </trkpt>
      <trkpt lat="44.60662" lon="6.19922">
        <ele>1545</ele>
        <time>2011-01-18T13:55:43Z</time>
      </trkpt>
      <trkpt lat="44.60673" lon="6.19914">
        <ele>1543</ele>
        <time>2011-01-18T13:55:53Z</time>
      </trkpt>
      <trkpt lat="44.60685" lon="6.19917">
        <ele>1539</ele>
        <time>2011-01-18T13:56:04Z</time>
      </trkpt>
      <trkpt lat="44.60684" lon="6.19918">
        <ele>1539</ele>
        <time>2011-01-18T13:56:17Z</time>
      </trkpt>
      <trkpt lat="44.60683" lon="6.19918">
        <ele>1539</ele>
        <time>2011-01-18T13:56:40Z</time>
      </trkpt>
      <trkpt lat="44.60683" lon="6.19919">
        <ele>1539</ele>
        <time>2011-01-18T13:57:01Z</time>
      </trkpt>
      <trkpt lat="44.60683" lon="6.19917">
        <ele>1539</ele>
        <time>2011-01-18T13:57:15Z</time>
      </trkpt>
      <trkpt lat="44.60683" lon="6.19919">
        <ele>1539</ele>
        <time>2011-01-18T13:57:48Z</time>
      </trkpt>
      <trkpt lat="44.60683" lon="6.1992">
        <ele>1539</ele>
        <time>2011-01-18T13:58:09Z</time>
      </trkpt>
      <trkpt lat="44.60683" lon="6.19919">
        <ele>1539</ele>
        <time>2011-01-18T13:58:19Z</time>
      </trkpt>
      <trkpt lat="44.60685" lon="6.19919">
        <ele>1539</ele>
        <time>2011-01-18T13:58:42Z</time>
      </trkpt>
      <trkpt lat="44.60684" lon="6.1992">
        <ele>1539</ele>
        <time>2011-01-18T13:59:01Z</time>
      </trkpt>
      <trkpt lat="44.60684" lon="6.19919">
        <ele>1539</ele>
        <time>2011-01-18T13:59:42Z</time>
      </trkpt>
      <trkpt lat="44.60688" lon="6.19916">
        <ele>1538</ele>
        <time>2011-01-18T13:59:53Z</time>
      </trkpt>
      <trkpt lat="44.60697" lon="6.19912">
        <ele>1536</ele>
        <time>2011-01-18T14:00:03Z</time>
      </trkpt>
      <trkpt lat="44.60705" lon="6.19908">
        <ele>1534</ele>
        <time>2011-01-18T14:00:57Z</time>
      </trkpt>
      <trkpt lat="44.60704" lon="6.19909">
        <ele>1532</ele>
        <time>2011-01-18T14:01:42Z</time>
      </trkpt>
      <trkpt lat="44.60712" lon="6.1991">
        <ele>1532</ele>
        <time>2011-01-18T14:01:53Z</time>
      </trkpt>
      <trkpt lat="44.60722" lon="6.19909">
        <ele>1531</ele>
        <time>2011-01-18T14:02:04Z</time>
      </trkpt>
      <trkpt lat="44.60732" lon="6.19909">
        <ele>1529</ele>
        <time>2011-01-18T14:02:14Z</time>
      </trkpt>
      <trkpt lat="44.60744" lon="6.19909">
        <ele>1527</ele>
        <time>2011-01-18T14:02:24Z</time>
      </trkpt>
      <trkpt lat="44.60755" lon="6.19911">
        <ele>1525</ele>
        <time>2011-01-18T14:02:34Z</time>
      </trkpt>
      <trkpt lat="44.60768" lon="6.1991">
        <ele>1523</ele>
        <time>2011-01-18T14:02:44Z</time>
      </trkpt>
      <trkpt lat="44.60781" lon="6.1991">
        <ele>1521</ele>
        <time>2011-01-18T14:02:54Z</time>
      </trkpt>
      <trkpt lat="44.60794" lon="6.1991">
        <ele>1519</ele>
        <time>2011-01-18T14:03:04Z</time>
      </trkpt>
      <trkpt lat="44.60807" lon="6.19908">
        <ele>1517</ele>
        <time>2011-01-18T14:03:14Z</time>
      </trkpt>
      <trkpt lat="44.60819" lon="6.19907">
        <ele>1516</ele>
        <time>2011-01-18T14:03:24Z</time>
      </trkpt>
      <trkpt lat="44.60831" lon="6.19905">
        <ele>1515</ele>
        <time>2011-01-18T14:03:34Z</time>
      </trkpt>
      <trkpt lat="44.60844" lon="6.19904">
        <ele>1514</ele>
        <time>2011-01-18T14:03:44Z</time>
      </trkpt>
      <trkpt lat="44.60856" lon="6.19899">
        <ele>1512</ele>
        <time>2011-01-18T14:03:55Z</time>
      </trkpt>
      <trkpt lat="44.60867" lon="6.19894">
        <ele>1510</ele>
        <time>2011-01-18T14:04:05Z</time>
      </trkpt>
      <trkpt lat="44.60877" lon="6.19886">
        <ele>1508</ele>
        <time>2011-01-18T14:04:15Z</time>
      </trkpt>
      <trkpt lat="44.60889" lon="6.19877">
        <ele>1505</ele>
        <time>2011-01-18T14:04:26Z</time>
      </trkpt>
      <trkpt lat="44.609" lon="6.19866">
        <ele>1502</ele>
        <time>2011-01-18T14:04:37Z</time>
      </trkpt>
      <trkpt lat="44.60911" lon="6.19856">
        <ele>1500</ele>
        <time>2011-01-18T14:04:47Z</time>
      </trkpt>
      <trkpt lat="44.60922" lon="6.19847">
        <ele>1497</ele>
        <time>2011-01-18T14:04:57Z</time>
      </trkpt>
      <trkpt lat="44.60933" lon="6.19837">
        <ele>1493</ele>
        <time>2011-01-18T14:05:07Z</time>
      </trkpt>
      <trkpt lat="44.60944" lon="6.19829">
        <ele>1489</ele>
        <time>2011-01-18T14:05:17Z</time>
      </trkpt>
      <trkpt lat="44.60957" lon="6.19823">
        <ele>1484</ele>
        <time>2011-01-18T14:05:27Z</time>
      </trkpt>
      <trkpt lat="44.60973" lon="6.1981">
        <ele>1480</ele>
        <time>2011-01-18T14:05:38Z</time>
      </trkpt>
      <trkpt lat="44.60984" lon="6.19803">
        <ele>1478</ele>
        <time>2011-01-18T14:05:48Z</time>
      </trkpt>
      <trkpt lat="44.60997" lon="6.19794">
        <ele>1475</ele>
        <time>2011-01-18T14:05:58Z</time>
      </trkpt>
      <trkpt lat="44.61009" lon="6.19785">
        <ele>1473</ele>
        <time>2011-01-18T14:06:08Z</time>
      </trkpt>
      <trkpt lat="44.61021" lon="6.19783">
        <ele>1472</ele>
        <time>2011-01-18T14:06:18Z</time>
      </trkpt>
      <trkpt lat="44.61021" lon="6.19781">
        <ele>1472</ele>
        <time>2011-01-18T14:06:29Z</time>
      </trkpt>
      <trkpt lat="44.61016" lon="6.19779">
        <ele>1471</ele>
        <time>2011-01-18T14:06:40Z</time>
      </trkpt>
      <trkpt lat="44.61019" lon="6.19779">
        <ele>1471</ele>
        <time>2011-01-18T14:06:55Z</time>
      </trkpt>
      <trkpt lat="44.6102" lon="6.1978">
        <ele>1471</ele>
        <time>2011-01-18T14:07:08Z</time>
      </trkpt>
      <trkpt lat="44.61021" lon="6.19781">
        <ele>1471</ele>
        <time>2011-01-18T14:07:31Z</time>
      </trkpt>
      <trkpt lat="44.61021" lon="6.19783">
        <ele>1471</ele>
        <time>2011-01-18T14:08:11Z</time>
      </trkpt>
      <trkpt lat="44.61022" lon="6.19781">
        <ele>1471</ele>
        <time>2011-01-18T14:08:23Z</time>
      </trkpt>
      <trkpt lat="44.61022" lon="6.19781">
        <ele>1471</ele>
        <time>2011-01-18T14:09:24Z</time>
      </trkpt>
      <trkpt lat="44.61021" lon="6.19782">
        <ele>1471</ele>
        <time>2011-01-18T14:09:40Z</time>
      </trkpt>
      <trkpt lat="44.61022" lon="6.19783">
        <ele>1468</ele>
        <time>2011-01-18T14:10:10Z</time>
      </trkpt>
      <trkpt lat="44.6103" lon="6.19777">
        <ele>1468</ele>
        <time>2011-01-18T14:10:20Z</time>
      </trkpt>
      <trkpt lat="44.61039" lon="6.19774">
        <ele>1468</ele>
        <time>2011-01-18T14:10:30Z</time>
      </trkpt>
      <trkpt lat="44.6105" lon="6.19767">
        <ele>1468</ele>
        <time>2011-01-18T14:10:41Z</time>
      </trkpt>
      <trkpt lat="44.61058" lon="6.19761">
        <ele>1468</ele>
        <time>2011-01-18T14:10:51Z</time>
      </trkpt>
      <trkpt lat="44.6107" lon="6.1976">
        <ele>1465</ele>
        <time>2011-01-18T14:11:02Z</time>
      </trkpt>
      <trkpt lat="44.61084" lon="6.19763">
        <ele>1461</ele>
        <time>2011-01-18T14:11:12Z</time>
      </trkpt>
      <trkpt lat="44.611" lon="6.19764">
        <ele>1456</ele>
        <time>2011-01-18T14:11:22Z</time>
      </trkpt>
      <trkpt lat="44.61118" lon="6.19762">
        <ele>1453</ele>
        <time>2011-01-18T14:11:32Z</time>
      </trkpt>
      <trkpt lat="44.61132" lon="6.19756">
        <ele>1451</ele>
        <time>2011-01-18T14:11:42Z</time>
      </trkpt>
      <trkpt lat="44.61146" lon="6.19749">
        <ele>1449</ele>
        <time>2011-01-18T14:11:52Z</time>
      </trkpt>
      <trkpt lat="44.61159" lon="6.19746">
        <ele>1448</ele>
        <time>2011-01-18T14:12:02Z</time>
      </trkpt>
      <trkpt lat="44.61172" lon="6.1974">
        <ele>1446</ele>
        <time>2011-01-18T14:12:12Z</time>
      </trkpt>
      <trkpt lat="44.61184" lon="6.19739">
        <ele>1442</ele>
        <time>2011-01-18T14:12:22Z</time>
      </trkpt>
      <trkpt lat="44.61195" lon="6.19738">
        <ele>1439</ele>
        <time>2011-01-18T14:12:32Z</time>
      </trkpt>
      <trkpt lat="44.61206" lon="6.19733">
        <ele>1435</ele>
        <time>2011-01-18T14:12:42Z</time>
      </trkpt>
      <trkpt lat="44.61221" lon="6.1973">
        <ele>1431</ele>
        <time>2011-01-18T14:12:52Z</time>
      </trkpt>
      <trkpt lat="44.61235" lon="6.19729">
        <ele>1429</ele>
        <time>2011-01-18T14:13:02Z</time>
      </trkpt>
      <trkpt lat="44.61248" lon="6.19724">
        <ele>1428</ele>
        <time>2011-01-18T14:13:12Z</time>
      </trkpt>
      <trkpt lat="44.61261" lon="6.19719">
        <ele>1426</ele>
        <time>2011-01-18T14:13:22Z</time>
      </trkpt>
      <trkpt lat="44.61275" lon="6.19716">
        <ele>1423</ele>
        <time>2011-01-18T14:13:32Z</time>
      </trkpt>
      <trkpt lat="44.61288" lon="6.1971">
        <ele>1421</ele>
        <time>2011-01-18T14:13:42Z</time>
      </trkpt>
      <trkpt lat="44.61302" lon="6.19705">
        <ele>1419</ele>
        <time>2011-01-18T14:13:52Z</time>
      </trkpt>
      <trkpt lat="44.61316" lon="6.19696">
        <ele>1416</ele>
        <time>2011-01-18T14:14:02Z</time>
      </trkpt>
      <trkpt lat="44.6133" lon="6.19691">
        <ele>1412</ele>
        <time>2011-01-18T14:14:12Z</time>
      </trkpt>
      <trkpt lat="44.61343" lon="6.19684">
        <ele>1411</ele>
        <time>2011-01-18T14:14:22Z</time>
      </trkpt>
      <trkpt lat="44.61356" lon="6.19678">
        <ele>1409</ele>
        <time>2011-01-18T14:14:32Z</time>
      </trkpt>
      <trkpt lat="44.61369" lon="6.1967">
        <ele>1407</ele>
        <time>2011-01-18T14:14:43Z</time>
      </trkpt>
      <trkpt lat="44.61381" lon="6.19661">
        <ele>1405</ele>
        <time>2011-01-18T14:14:53Z</time>
      </trkpt>
      <trkpt lat="44.61393" lon="6.19652">
        <ele>1404</ele>
        <time>2011-01-18T14:15:03Z</time>
      </trkpt>
      <trkpt lat="44.61404" lon="6.19639">
        <ele>1402</ele>
        <time>2011-01-18T14:15:13Z</time>
      </trkpt>
      <trkpt lat="44.61416" lon="6.19628">
        <ele>1400</ele>
        <time>2011-01-18T14:15:23Z</time>
      </trkpt>
      <trkpt lat="44.61428" lon="6.19619">
        <ele>1399</ele>
        <time>2011-01-18T14:15:33Z</time>
      </trkpt>
      <trkpt lat="44.6144" lon="6.19615">
        <ele>1397</ele>
        <time>2011-01-18T14:15:44Z</time>
      </trkpt>
      <trkpt lat="44.61443" lon="6.19614">
        <ele>1395</ele>
        <time>2011-01-18T14:16:01Z</time>
      </trkpt>
      <trkpt lat="44.61449" lon="6.19601">
        <ele>1394</ele>
        <time>2011-01-18T14:16:11Z</time>
      </trkpt>
      <trkpt lat="44.6146" lon="6.19588">
        <ele>1392</ele>
        <time>2011-01-18T14:16:22Z</time>
      </trkpt>
      <trkpt lat="44.6147" lon="6.19574">
        <ele>1391</ele>
        <time>2011-01-18T14:16:32Z</time>
      </trkpt>
      <trkpt lat="44.61479" lon="6.1956">
        <ele>1388</ele>
        <time>2011-01-18T14:16:43Z</time>
      </trkpt>
      <trkpt lat="44.61488" lon="6.19548">
        <ele>1386</ele>
        <time>2011-01-18T14:16:53Z</time>
      </trkpt>
      <trkpt lat="44.61496" lon="6.19537">
        <ele>1385</ele>
        <time>2011-01-18T14:17:04Z</time>
      </trkpt>
      <trkpt lat="44.61495" lon="6.19537">
        <ele>1383</ele>
        <time>2011-01-18T14:17:47Z</time>
      </trkpt>
      <trkpt lat="44.61496" lon="6.19538">
        <ele>1383</ele>
        <time>2011-01-18T14:18:27Z</time>
      </trkpt>
      <trkpt lat="44.61506" lon="6.19544">
        <ele>1393</ele>
        <time>2011-01-18T14:20:23Z</time>
      </trkpt>
      <trkpt lat="44.61496" lon="6.19541">
        <ele>1389</ele>
        <time>2011-01-18T14:20:33Z</time>
      </trkpt>
      <trkpt lat="44.61494" lon="6.19542">
        <ele>1388</ele>
        <time>2011-01-18T14:20:55Z</time>
      </trkpt>
      <trkpt lat="44.61498" lon="6.1954">
        <ele>1387</ele>
        <time>2011-01-18T14:21:05Z</time>
      </trkpt>
      <trkpt lat="44.61497" lon="6.19544">
        <ele>1387</ele>
        <time>2011-01-18T14:21:25Z</time>
      </trkpt>
      <trkpt lat="44.61499" lon="6.19543">
        <ele>1388</ele>
        <time>2011-01-18T14:21:39Z</time>
      </trkpt>
      <trkpt lat="44.61496" lon="6.19544">
        <ele>1385</ele>
        <time>2011-01-18T14:21:57Z</time>
      </trkpt>
      <trkpt lat="44.61498" lon="6.19546">
        <ele>1385</ele>
        <time>2011-01-18T14:22:07Z</time>
      </trkpt>
      <trkpt lat="44.61496" lon="6.19545">
        <ele>1389</ele>
        <time>2011-01-18T14:22:19Z</time>
      </trkpt>
      <trkpt lat="44.61494" lon="6.19542">
        <ele>1386</ele>
        <time>2011-01-18T14:22:31Z</time>
      </trkpt>
      <trkpt lat="44.61494" lon="6.19541">
        <ele>1384</ele>
        <time>2011-01-18T14:22:42Z</time>
      </trkpt>
      <trkpt lat="44.61501" lon="6.19539">
        <ele>1384</ele>
        <time>2011-01-18T14:22:52Z</time>
      </trkpt>
      <trkpt lat="44.61513" lon="6.19535">
        <ele>1383</ele>
        <time>2011-01-18T14:23:02Z</time>
      </trkpt>
      <trkpt lat="44.61524" lon="6.19537">
        <ele>1380</ele>
        <time>2011-01-18T14:23:12Z</time>
      </trkpt>
      <trkpt lat="44.61533" lon="6.1954">
        <ele>1377</ele>
        <time>2011-01-18T14:23:22Z</time>
      </trkpt>
      <trkpt lat="44.61543" lon="6.19539">
        <ele>1375</ele>
        <time>2011-01-18T14:23:33Z</time>
      </trkpt>
      <trkpt lat="44.61551" lon="6.19537">
        <ele>1374</ele>
        <time>2011-01-18T14:23:44Z</time>
      </trkpt>
      <trkpt lat="44.61556" lon="6.19536">
        <ele>1373</ele>
        <time>2011-01-18T14:23:55Z</time>
      </trkpt>
      <trkpt lat="44.61555" lon="6.19536">
        <ele>1373</ele>
        <time>2011-01-18T14:24:06Z</time>
      </trkpt>
      <trkpt lat="44.61548" lon="6.19539">
        <ele>1373</ele>
        <time>2011-01-18T14:24:18Z</time>
      </trkpt>
      <trkpt lat="44.61545" lon="6.19536">
        <ele>1373</ele>
        <time>2011-01-18T14:24:29Z</time>
      </trkpt>
      <trkpt lat="44.61549" lon="6.19528">
        <ele>1373</ele>
        <time>2011-01-18T14:24:39Z</time>
      </trkpt>
      <trkpt lat="44.61558" lon="6.19523">
        <ele>1373</ele>
        <time>2011-01-18T14:24:49Z</time>
      </trkpt>
      <trkpt lat="44.61569" lon="6.19515">
        <ele>1373</ele>
        <time>2011-01-18T14:25:00Z</time>
      </trkpt>
      <trkpt lat="44.61581" lon="6.19507">
        <ele>1372</ele>
        <time>2011-01-18T14:25:11Z</time>
      </trkpt>
      <trkpt lat="44.61591" lon="6.19498">
        <ele>1370</ele>
        <time>2011-01-18T14:25:21Z</time>
      </trkpt>
      <trkpt lat="44.61602" lon="6.19487">
        <ele>1369</ele>
        <time>2011-01-18T14:25:32Z</time>
      </trkpt>
      <trkpt lat="44.61613" lon="6.19474">
        <ele>1366</ele>
        <time>2011-01-18T14:25:44Z</time>
      </trkpt>
      <trkpt lat="44.61622" lon="6.19459">
        <ele>1364</ele>
        <time>2011-01-18T14:25:55Z</time>
      </trkpt>
      <trkpt lat="44.6163" lon="6.19446">
        <ele>1362</ele>
        <time>2011-01-18T14:26:06Z</time>
      </trkpt>
      <trkpt lat="44.61639" lon="6.19438">
        <ele>1360</ele>
        <time>2011-01-18T14:26:16Z</time>
      </trkpt>
      <trkpt lat="44.61644" lon="6.19447">
        <ele>1358</ele>
        <time>2011-01-18T14:26:27Z</time>
      </trkpt>
      <trkpt lat="44.61649" lon="6.19457">
        <ele>1356</ele>
        <time>2011-01-18T14:26:38Z</time>
      </trkpt>
      <trkpt lat="44.61652" lon="6.19458">
        <ele>1355</ele>
        <time>2011-01-18T14:26:50Z</time>
      </trkpt>
      <trkpt lat="44.61661" lon="6.19448">
        <ele>1354</ele>
        <time>2011-01-18T14:27:02Z</time>
      </trkpt>
      <trkpt lat="44.6167" lon="6.19448">
        <ele>1354</ele>
        <time>2011-01-18T14:27:19Z</time>
      </trkpt>
      <trkpt lat="44.61678" lon="6.19455">
        <ele>1352</ele>
        <time>2011-01-18T14:27:30Z</time>
      </trkpt>
      <trkpt lat="44.61687" lon="6.19458">
        <ele>1350</ele>
        <time>2011-01-18T14:27:40Z</time>
      </trkpt>
      <trkpt lat="44.61697" lon="6.19463">
        <ele>1349</ele>
        <time>2011-01-18T14:27:52Z</time>
      </trkpt>
      <trkpt lat="44.61705" lon="6.1947">
        <ele>1347</ele>
        <time>2011-01-18T14:28:04Z</time>
      </trkpt>
      <trkpt lat="44.617" lon="6.1948">
        <ele>1345</ele>
        <time>2011-01-18T14:28:15Z</time>
      </trkpt>
      <trkpt lat="44.61703" lon="6.19481">
        <ele>1345</ele>
        <time>2011-01-18T14:28:30Z</time>
      </trkpt>
      <trkpt lat="44.6171" lon="6.19481">
        <ele>1345</ele>
        <time>2011-01-18T14:28:41Z</time>
      </trkpt>
      <trkpt lat="44.61715" lon="6.19487">
        <ele>1343</ele>
        <time>2011-01-18T14:28:56Z</time>
      </trkpt>
      <trkpt lat="44.61728" lon="6.19495">
        <ele>1340</ele>
        <time>2011-01-18T14:29:07Z</time>
      </trkpt>
      <trkpt lat="44.61736" lon="6.19506">
        <ele>1337</ele>
        <time>2011-01-18T14:29:17Z</time>
      </trkpt>
      <trkpt lat="44.61749" lon="6.19505">
        <ele>1335</ele>
        <time>2011-01-18T14:29:27Z</time>
      </trkpt>
      <trkpt lat="44.61762" lon="6.19508">
        <ele>1332</ele>
        <time>2011-01-18T14:29:37Z</time>
      </trkpt>
      <trkpt lat="44.61775" lon="6.19509">
        <ele>1328</ele>
        <time>2011-01-18T14:29:47Z</time>
      </trkpt>
      <trkpt lat="44.6179" lon="6.19513">
        <ele>1325</ele>
        <time>2011-01-18T14:29:59Z</time>
      </trkpt>
      <trkpt lat="44.61798" lon="6.19515">
        <ele>1324</ele>
        <time>2011-01-18T14:30:09Z</time>
      </trkpt>
      <trkpt lat="44.61801" lon="6.19501">
        <ele>1322</ele>
        <time>2011-01-18T14:30:26Z</time>
      </trkpt>
      <trkpt lat="44.61801" lon="6.19493">
        <ele>1321</ele>
        <time>2011-01-18T14:30:37Z</time>
      </trkpt>
      <trkpt lat="44.618" lon="6.19491">
        <ele>1319</ele>
        <time>2011-01-18T14:31:00Z</time>
      </trkpt>
      <trkpt lat="44.61802" lon="6.19477">
        <ele>1316</ele>
        <time>2011-01-18T14:31:11Z</time>
      </trkpt>
      <trkpt lat="44.61804" lon="6.19463">
        <ele>1315</ele>
        <time>2011-01-18T14:31:22Z</time>
      </trkpt>
      <trkpt lat="44.61806" lon="6.19447">
        <ele>1315</ele>
        <time>2011-01-18T14:31:33Z</time>
      </trkpt>
      <trkpt lat="44.61812" lon="6.19432">
        <ele>1314</ele>
        <time>2011-01-18T14:31:45Z</time>
      </trkpt>
      <trkpt lat="44.61819" lon="6.19419">
        <ele>1314</ele>
        <time>2011-01-18T14:31:57Z</time>
      </trkpt>
      <trkpt lat="44.61824" lon="6.19408">
        <ele>1314</ele>
        <time>2011-01-18T14:32:07Z</time>
      </trkpt>
      <trkpt lat="44.61827" lon="6.19395">
        <ele>1314</ele>
        <time>2011-01-18T14:32:20Z</time>
      </trkpt>
      <trkpt lat="44.61828" lon="6.19393">
        <ele>1314</ele>
        <time>2011-01-18T14:32:43Z</time>
      </trkpt>
      <trkpt lat="44.61831" lon="6.19391">
        <ele>1314</ele>
        <time>2011-01-18T14:32:54Z</time>
      </trkpt>
      <trkpt lat="44.61831" lon="6.19393">
        <ele>1314</ele>
        <time>2011-01-18T14:33:10Z</time>
      </trkpt>
      <trkpt lat="44.61831" lon="6.19387">
        <ele>1314</ele>
        <time>2011-01-18T14:33:20Z</time>
      </trkpt>
      <trkpt lat="44.61833" lon="6.19376">
        <ele>1312</ele>
        <time>2011-01-18T14:33:31Z</time>
      </trkpt>
      <trkpt lat="44.61834" lon="6.19368">
        <ele>1312</ele>
        <time>2011-01-18T14:33:41Z</time>
      </trkpt>
      <trkpt lat="44.61838" lon="6.19359">
        <ele>1312</ele>
        <time>2011-01-18T14:33:51Z</time>
      </trkpt>
      <trkpt lat="44.61839" lon="6.19346">
        <ele>1312</ele>
        <time>2011-01-18T14:34:01Z</time>
      </trkpt>
      <trkpt lat="44.61847" lon="6.1934">
        <ele>1312</ele>
        <time>2011-01-18T14:34:11Z</time>
      </trkpt>
      <trkpt lat="44.61854" lon="6.19344">
        <ele>1308</ele>
        <time>2011-01-18T14:34:21Z</time>
      </trkpt>
      <trkpt lat="44.61866" lon="6.19346">
        <ele>1307</ele>
        <time>2011-01-18T14:34:32Z</time>
      </trkpt>
      <trkpt lat="44.61878" lon="6.19348">
        <ele>1307</ele>
        <time>2011-01-18T14:34:42Z</time>
      </trkpt>
      <trkpt lat="44.61887" lon="6.19352">
        <ele>1307</ele>
        <time>2011-01-18T14:34:52Z</time>
      </trkpt>
      <trkpt lat="44.61899" lon="6.19356">
        <ele>1307</ele>
        <time>2011-01-18T14:35:02Z</time>
      </trkpt>
      <trkpt lat="44.61913" lon="6.1936">
        <ele>1307</ele>
        <time>2011-01-18T14:35:13Z</time>
      </trkpt>
      <trkpt lat="44.61926" lon="6.19367">
        <ele>1307</ele>
        <time>2011-01-18T14:35:24Z</time>
      </trkpt>
      <trkpt lat="44.61933" lon="6.19382">
        <ele>1307</ele>
        <time>2011-01-18T14:35:35Z</time>
      </trkpt>
      <trkpt lat="44.61942" lon="6.19391">
        <ele>1307</ele>
        <time>2011-01-18T14:35:45Z</time>
      </trkpt>
      <trkpt lat="44.61954" lon="6.19399">
        <ele>1307</ele>
        <time>2011-01-18T14:35:56Z</time>
      </trkpt>
      <trkpt lat="44.61965" lon="6.19404">
        <ele>1307</ele>
        <time>2011-01-18T14:36:06Z</time>
      </trkpt>
      <trkpt lat="44.61978" lon="6.19408">
        <ele>1307</ele>
        <time>2011-01-18T14:36:18Z</time>
      </trkpt>
      <trkpt lat="44.61989" lon="6.19411">
        <ele>1307</ele>
        <time>2011-01-18T14:36:28Z</time>
      </trkpt>
      <trkpt lat="44.61999" lon="6.19417">
        <ele>1306</ele>
        <time>2011-01-18T14:36:39Z</time>
      </trkpt>
      <trkpt lat="44.62009" lon="6.19422">
        <ele>1303</ele>
        <time>2011-01-18T14:36:50Z</time>
      </trkpt>
      <trkpt lat="44.62021" lon="6.19424">
        <ele>1303</ele>
        <time>2011-01-18T14:37:00Z</time>
      </trkpt>
      <trkpt lat="44.62031" lon="6.19424">
        <ele>1303</ele>
        <time>2011-01-18T14:37:10Z</time>
      </trkpt>
      <trkpt lat="44.62038" lon="6.1941">
        <ele>1303</ele>
        <time>2011-01-18T14:37:21Z</time>
      </trkpt>
      <trkpt lat="44.62046" lon="6.19399">
        <ele>1303</ele>
        <time>2011-01-18T14:37:31Z</time>
      </trkpt>
      <trkpt lat="44.62053" lon="6.19392">
        <ele>1303</ele>
        <time>2011-01-18T14:37:41Z</time>
      </trkpt>
      <trkpt lat="44.62062" lon="6.19385">
        <ele>1303</ele>
        <time>2011-01-18T14:37:51Z</time>
      </trkpt>
      <trkpt lat="44.62071" lon="6.19379">
        <ele>1303</ele>
        <time>2011-01-18T14:38:01Z</time>
      </trkpt>
      <trkpt lat="44.62079" lon="6.19372">
        <ele>1303</ele>
        <time>2011-01-18T14:38:11Z</time>
      </trkpt>
      <trkpt lat="44.62085" lon="6.19359">
        <ele>1303</ele>
        <time>2011-01-18T14:38:21Z</time>
      </trkpt>
      <trkpt lat="44.6209" lon="6.19348">
        <ele>1303</ele>
        <time>2011-01-18T14:38:31Z</time>
      </trkpt>
      <trkpt lat="44.62093" lon="6.19335">
        <ele>1303</ele>
        <time>2011-01-18T14:38:42Z</time>
      </trkpt>
      <trkpt lat="44.62097" lon="6.19323">
        <ele>1303</ele>
        <time>2011-01-18T14:38:52Z</time>
      </trkpt>
      <trkpt lat="44.62098" lon="6.19307">
        <ele>1303</ele>
        <time>2011-01-18T14:39:02Z</time>
      </trkpt>
      <trkpt lat="44.62098" lon="6.19291">
        <ele>1303</ele>
        <time>2011-01-18T14:39:12Z</time>
      </trkpt>
      <trkpt lat="44.62096" lon="6.19274">
        <ele>1303</ele>
        <time>2011-01-18T14:39:23Z</time>
      </trkpt>
      <trkpt lat="44.62093" lon="6.1926">
        <ele>1303</ele>
        <time>2011-01-18T14:39:33Z</time>
      </trkpt>
      <trkpt lat="44.62092" lon="6.19246">
        <ele>1301</ele>
        <time>2011-01-18T14:39:45Z</time>
      </trkpt>
      <trkpt lat="44.62097" lon="6.19236">
        <ele>1301</ele>
        <time>2011-01-18T14:39:55Z</time>
      </trkpt>
      <trkpt lat="44.62103" lon="6.19223">
        <ele>1301</ele>
        <time>2011-01-18T14:40:05Z</time>
      </trkpt>
      <trkpt lat="44.62109" lon="6.19211">
        <ele>1301</ele>
        <time>2011-01-18T14:40:16Z</time>
      </trkpt>
      <trkpt lat="44.62112" lon="6.19201">
        <ele>1300</ele>
        <time>2011-01-18T14:40:26Z</time>
      </trkpt>
      <trkpt lat="44.62112" lon="6.19184">
        <ele>1300</ele>
        <time>2011-01-18T14:40:37Z</time>
      </trkpt>
      <trkpt lat="44.62114" lon="6.19171">
        <ele>1300</ele>
        <time>2011-01-18T14:40:47Z</time>
      </trkpt>
      <trkpt lat="44.62116" lon="6.19157">
        <ele>1300</ele>
        <time>2011-01-18T14:40:57Z</time>
      </trkpt>
      <trkpt lat="44.62115" lon="6.1914">
        <ele>1300</ele>
        <time>2011-01-18T14:41:07Z</time>
      </trkpt>
      <trkpt lat="44.62114" lon="6.19125">
        <ele>1300</ele>
        <time>2011-01-18T14:41:17Z</time>
      </trkpt>
      <trkpt lat="44.62116" lon="6.19109">
        <ele>1300</ele>
        <time>2011-01-18T14:41:28Z</time>
      </trkpt>
      <trkpt lat="44.62116" lon="6.19099">
        <ele>1300</ele>
        <time>2011-01-18T14:41:38Z</time>
      </trkpt>
      <trkpt lat="44.62115" lon="6.19089">
        <ele>1300</ele>
        <time>2011-01-18T14:41:48Z</time>
      </trkpt>
      <trkpt lat="44.62113" lon="6.19078">
        <ele>1300</ele>
        <time>2011-01-18T14:41:58Z</time>
      </trkpt>
      <trkpt lat="44.62113" lon="6.19069">
        <ele>1300</ele>
        <time>2011-01-18T14:42:08Z</time>
      </trkpt>
      <trkpt lat="44.62115" lon="6.19059">
        <ele>1301</ele>
        <time>2011-01-18T14:42:18Z</time>
      </trkpt>
      <trkpt lat="44.62117" lon="6.19045">
        <ele>1302</ele>
        <time>2011-01-18T14:42:28Z</time>
      </trkpt>
      <trkpt lat="44.62119" lon="6.19029">
        <ele>1303</ele>
        <time>2011-01-18T14:42:39Z</time>
      </trkpt>
      <trkpt lat="44.62119" lon="6.19013">
        <ele>1304</ele>
        <time>2011-01-18T14:42:50Z</time>
      </trkpt>
      <trkpt lat="44.6212" lon="6.18998">
        <ele>1305</ele>
        <time>2011-01-18T14:43:01Z</time>
      </trkpt>
      <trkpt lat="44.62119" lon="6.18985">
        <ele>1305</ele>
        <time>2011-01-18T14:43:12Z</time>
      </trkpt>
      <trkpt lat="44.62119" lon="6.18969">
        <ele>1305</ele>
        <time>2011-01-18T14:43:22Z</time>
      </trkpt>
      <trkpt lat="44.62118" lon="6.18951">
        <ele>1305</ele>
        <time>2011-01-18T14:43:32Z</time>
      </trkpt>
      <trkpt lat="44.62115" lon="6.18934">
        <ele>1305</ele>
        <time>2011-01-18T14:43:42Z</time>
      </trkpt>
      <trkpt lat="44.62114" lon="6.18917">
        <ele>1304</ele>
        <time>2011-01-18T14:43:52Z</time>
      </trkpt>
      <trkpt lat="44.62117" lon="6.18902">
        <ele>1304</ele>
        <time>2011-01-18T14:44:02Z</time>
      </trkpt>
      <trkpt lat="44.62122" lon="6.18886">
        <ele>1304</ele>
        <time>2011-01-18T14:44:13Z</time>
      </trkpt>
      <trkpt lat="44.62128" lon="6.18876">
        <ele>1302</ele>
        <time>2011-01-18T14:44:23Z</time>
      </trkpt>
      <trkpt lat="44.62128" lon="6.18863">
        <ele>1300</ele>
        <time>2011-01-18T14:44:33Z</time>
      </trkpt>
      <trkpt lat="44.62129" lon="6.18849">
        <ele>1299</ele>
        <time>2011-01-18T14:44:44Z</time>
      </trkpt>
      <trkpt lat="44.62131" lon="6.18834">
        <ele>1299</ele>
        <time>2011-01-18T14:44:55Z</time>
      </trkpt>
      <trkpt lat="44.62133" lon="6.18824">
        <ele>1299</ele>
        <time>2011-01-18T14:45:06Z</time>
      </trkpt>
      <trkpt lat="44.62135" lon="6.18822">
        <ele>1299</ele>
        <time>2011-01-18T14:45:18Z</time>
      </trkpt>
      <trkpt lat="44.62136" lon="6.18822">
        <ele>1299</ele>
        <time>2011-01-18T14:45:36Z</time>
      </trkpt>
      <trkpt lat="44.62138" lon="6.18823">
        <ele>1300</ele>
        <time>2011-01-18T14:45:46Z</time>
      </trkpt>
      <trkpt lat="44.62137" lon="6.18824">
        <ele>1300</ele>
        <time>2011-01-18T14:45:52Z</time>
      </trkpt>
    </trkseg>
  </trk>
</gpx>